<?xml version="1.0" encoding="UTF-8" standalone="no" ?>
<gpx xmlns="http://www.topografix.com/GPX/1/1" xmlns:xsi="http://www.w3.org/2001/XMLSchema-instance" xsi:schemaLocation="http://www.topografix.com/GPX/1/1 http://www.topografix.com/GPX/1/1/gpx.xsd" version="1.1" creator="VisuGPX - https://www.visugpx.com">
  <metadata>
    <name>Berdorf (G.D.L) Balade hobby 2018 </name>
    <desc><![CDATA[Balades dans la petite Suisse Luxembourgeoise à une petite heure de Libin bien sympa pour une balade un peu hors du commun. ]]></desc>
  </metadata>
  <trk>
    <name><![CDATA[Mullerthal]]></name>
    <trkseg>
      <trkpt lat="49.81882" lon="6.33181">
        <ele>217</ele>
        <time>2018-04-20T09:41:25Z</time>
      </trkpt>
      <trkpt lat="49.81879" lon="6.33173">
        <ele>217</ele>
        <time>2018-04-20T09:41:35Z</time>
      </trkpt>
      <trkpt lat="49.81885" lon="6.33163">
        <ele>217</ele>
        <time>2018-04-20T09:41:45Z</time>
      </trkpt>
      <trkpt lat="49.81888" lon="6.33149">
        <ele>216</ele>
        <time>2018-04-20T09:41:56Z</time>
      </trkpt>
      <trkpt lat="49.81898" lon="6.33139">
        <ele>214</ele>
        <time>2018-04-20T09:42:06Z</time>
      </trkpt>
      <trkpt lat="49.81908" lon="6.33135">
        <ele>213</ele>
        <time>2018-04-20T09:42:16Z</time>
      </trkpt>
      <trkpt lat="49.81915" lon="6.33133">
        <ele>212</ele>
        <time>2018-04-20T09:42:26Z</time>
      </trkpt>
      <trkpt lat="49.81918" lon="6.33123">
        <ele>211</ele>
        <time>2018-04-20T09:42:37Z</time>
      </trkpt>
      <trkpt lat="49.81921" lon="6.33113">
        <ele>210</ele>
        <time>2018-04-20T09:42:47Z</time>
      </trkpt>
      <trkpt lat="49.81926" lon="6.33105">
        <ele>209</ele>
        <time>2018-04-20T09:42:57Z</time>
      </trkpt>
      <trkpt lat="49.81929" lon="6.33102">
        <ele>208</ele>
        <time>2018-04-20T09:43:07Z</time>
      </trkpt>
      <trkpt lat="49.81934" lon="6.33097">
        <ele>207</ele>
        <time>2018-04-20T09:43:18Z</time>
      </trkpt>
      <trkpt lat="49.81939" lon="6.33092">
        <ele>207</ele>
        <time>2018-04-20T09:43:28Z</time>
      </trkpt>
      <trkpt lat="49.81947" lon="6.33098">
        <ele>205</ele>
        <time>2018-04-20T09:43:39Z</time>
      </trkpt>
      <trkpt lat="49.81953" lon="6.33098">
        <ele>204</ele>
        <time>2018-04-20T09:43:50Z</time>
      </trkpt>
      <trkpt lat="49.81955" lon="6.33102">
        <ele>202</ele>
        <time>2018-04-20T09:44:00Z</time>
      </trkpt>
      <trkpt lat="49.81957" lon="6.33088">
        <ele>202</ele>
        <time>2018-04-20T09:44:10Z</time>
      </trkpt>
      <trkpt lat="49.81957" lon="6.33064">
        <ele>200</ele>
        <time>2018-04-20T09:44:20Z</time>
      </trkpt>
      <trkpt lat="49.8196" lon="6.33063">
        <ele>200</ele>
        <time>2018-04-20T09:44:31Z</time>
      </trkpt>
      <trkpt lat="49.81962" lon="6.3307">
        <ele>200</ele>
        <time>2018-04-20T09:44:41Z</time>
      </trkpt>
      <trkpt lat="49.81965" lon="6.3308">
        <ele>198</ele>
        <time>2018-04-20T09:44:52Z</time>
      </trkpt>
      <trkpt lat="49.81968" lon="6.33074">
        <ele>198</ele>
        <time>2018-04-20T09:45:02Z</time>
      </trkpt>
      <trkpt lat="49.81973" lon="6.33061">
        <ele>196</ele>
        <time>2018-04-20T09:45:12Z</time>
      </trkpt>
      <trkpt lat="49.81978" lon="6.33057">
        <ele>195</ele>
        <time>2018-04-20T09:45:23Z</time>
      </trkpt>
      <trkpt lat="49.81983" lon="6.33053">
        <ele>193</ele>
        <time>2018-04-20T09:45:34Z</time>
      </trkpt>
      <trkpt lat="49.81989" lon="6.33053">
        <ele>193</ele>
        <time>2018-04-20T09:45:44Z</time>
      </trkpt>
      <trkpt lat="49.81994" lon="6.33066">
        <ele>193</ele>
        <time>2018-04-20T09:45:55Z</time>
      </trkpt>
      <trkpt lat="49.81997" lon="6.33082">
        <ele>193</ele>
        <time>2018-04-20T09:46:05Z</time>
      </trkpt>
      <trkpt lat="49.82" lon="6.33089">
        <ele>193</ele>
        <time>2018-04-20T09:46:15Z</time>
      </trkpt>
      <trkpt lat="49.82005" lon="6.33094">
        <ele>193</ele>
        <time>2018-04-20T09:46:26Z</time>
      </trkpt>
      <trkpt lat="49.82008" lon="6.33098">
        <ele>191</ele>
        <time>2018-04-20T09:46:36Z</time>
      </trkpt>
      <trkpt lat="49.82008" lon="6.33108">
        <ele>191</ele>
        <time>2018-04-20T09:46:46Z</time>
      </trkpt>
      <trkpt lat="49.82007" lon="6.33114">
        <ele>190</ele>
        <time>2018-04-20T09:46:57Z</time>
      </trkpt>
      <trkpt lat="49.82006" lon="6.33113">
        <ele>190</ele>
        <time>2018-04-20T09:47:08Z</time>
      </trkpt>
      <trkpt lat="49.82007" lon="6.33112">
        <ele>190</ele>
        <time>2018-04-20T09:47:19Z</time>
      </trkpt>
      <trkpt lat="49.82009" lon="6.33112">
        <ele>190</ele>
        <time>2018-04-20T09:47:29Z</time>
      </trkpt>
      <trkpt lat="49.82012" lon="6.3311">
        <ele>190</ele>
        <time>2018-04-20T09:47:39Z</time>
      </trkpt>
      <trkpt lat="49.82017" lon="6.33124">
        <ele>190</ele>
        <time>2018-04-20T09:47:49Z</time>
      </trkpt>
      <trkpt lat="49.82014" lon="6.33133">
        <ele>189</ele>
        <time>2018-04-20T09:48:00Z</time>
      </trkpt>
      <trkpt lat="49.82011" lon="6.3314">
        <ele>189</ele>
        <time>2018-04-20T09:48:10Z</time>
      </trkpt>
      <trkpt lat="49.82015" lon="6.33144">
        <ele>189</ele>
        <time>2018-04-20T09:48:20Z</time>
      </trkpt>
      <trkpt lat="49.82026" lon="6.33149">
        <ele>188</ele>
        <time>2018-04-20T09:48:31Z</time>
      </trkpt>
      <trkpt lat="49.82029" lon="6.33154">
        <ele>188</ele>
        <time>2018-04-20T09:48:42Z</time>
      </trkpt>
      <trkpt lat="49.82035" lon="6.33154">
        <ele>188</ele>
        <time>2018-04-20T09:48:52Z</time>
      </trkpt>
      <trkpt lat="49.82042" lon="6.33174">
        <ele>189</ele>
        <time>2018-04-20T09:49:02Z</time>
      </trkpt>
      <trkpt lat="49.82049" lon="6.33181">
        <ele>188</ele>
        <time>2018-04-20T09:49:12Z</time>
      </trkpt>
      <trkpt lat="49.82055" lon="6.33192">
        <ele>189</ele>
        <time>2018-04-20T09:49:23Z</time>
      </trkpt>
      <trkpt lat="49.82061" lon="6.33203">
        <ele>190</ele>
        <time>2018-04-20T09:49:34Z</time>
      </trkpt>
      <trkpt lat="49.82066" lon="6.33215">
        <ele>191</ele>
        <time>2018-04-20T09:49:44Z</time>
      </trkpt>
      <trkpt lat="49.82071" lon="6.33229">
        <ele>192</ele>
        <time>2018-04-20T09:49:55Z</time>
      </trkpt>
      <trkpt lat="49.82074" lon="6.33244">
        <ele>193</ele>
        <time>2018-04-20T09:50:06Z</time>
      </trkpt>
      <trkpt lat="49.8208" lon="6.33252">
        <ele>193</ele>
        <time>2018-04-20T09:50:16Z</time>
      </trkpt>
      <trkpt lat="49.82085" lon="6.33262">
        <ele>192</ele>
        <time>2018-04-20T09:50:27Z</time>
      </trkpt>
      <trkpt lat="49.82089" lon="6.3327">
        <ele>192</ele>
        <time>2018-04-20T09:50:37Z</time>
      </trkpt>
      <trkpt lat="49.82093" lon="6.33281">
        <ele>193</ele>
        <time>2018-04-20T09:50:47Z</time>
      </trkpt>
      <trkpt lat="49.82099" lon="6.33289">
        <ele>194</ele>
        <time>2018-04-20T09:50:58Z</time>
      </trkpt>
      <trkpt lat="49.82103" lon="6.33294">
        <ele>194</ele>
        <time>2018-04-20T09:51:08Z</time>
      </trkpt>
      <trkpt lat="49.82103" lon="6.33297">
        <ele>194</ele>
        <time>2018-04-20T09:51:19Z</time>
      </trkpt>
      <trkpt lat="49.82109" lon="6.333">
        <ele>193</ele>
        <time>2018-04-20T09:51:29Z</time>
      </trkpt>
      <trkpt lat="49.8211" lon="6.33296">
        <ele>192</ele>
        <time>2018-04-20T09:51:39Z</time>
      </trkpt>
      <trkpt lat="49.82114" lon="6.33294">
        <ele>191</ele>
        <time>2018-04-20T09:51:50Z</time>
      </trkpt>
      <trkpt lat="49.82116" lon="6.3329">
        <ele>189</ele>
        <time>2018-04-20T09:52:01Z</time>
      </trkpt>
      <trkpt lat="49.82119" lon="6.33294">
        <ele>189</ele>
        <time>2018-04-20T09:52:11Z</time>
      </trkpt>
      <trkpt lat="49.82129" lon="6.33308">
        <ele>189</ele>
        <time>2018-04-20T09:52:22Z</time>
      </trkpt>
      <trkpt lat="49.82138" lon="6.33316">
        <ele>190</ele>
        <time>2018-04-20T09:52:32Z</time>
      </trkpt>
      <trkpt lat="49.82143" lon="6.33318">
        <ele>190</ele>
        <time>2018-04-20T09:52:42Z</time>
      </trkpt>
      <trkpt lat="49.8215" lon="6.33323">
        <ele>190</ele>
        <time>2018-04-20T09:52:53Z</time>
      </trkpt>
      <trkpt lat="49.82153" lon="6.33328">
        <ele>191</ele>
        <time>2018-04-20T09:53:03Z</time>
      </trkpt>
      <trkpt lat="49.82156" lon="6.33333">
        <ele>191</ele>
        <time>2018-04-20T09:53:14Z</time>
      </trkpt>
      <trkpt lat="49.82159" lon="6.33334">
        <ele>191</ele>
        <time>2018-04-20T09:53:24Z</time>
      </trkpt>
      <trkpt lat="49.82158" lon="6.33337">
        <ele>191</ele>
        <time>2018-04-20T09:53:34Z</time>
      </trkpt>
      <trkpt lat="49.82157" lon="6.33344">
        <ele>191</ele>
        <time>2018-04-20T09:53:45Z</time>
      </trkpt>
      <trkpt lat="49.82159" lon="6.33343">
        <ele>191</ele>
        <time>2018-04-20T09:53:56Z</time>
      </trkpt>
      <trkpt lat="49.82163" lon="6.33337">
        <ele>191</ele>
        <time>2018-04-20T09:54:06Z</time>
      </trkpt>
      <trkpt lat="49.82163" lon="6.33333">
        <ele>190</ele>
        <time>2018-04-20T09:54:17Z</time>
      </trkpt>
      <trkpt lat="49.82165" lon="6.33333">
        <ele>191</ele>
        <time>2018-04-20T09:54:27Z</time>
      </trkpt>
      <trkpt lat="49.8217" lon="6.3333">
        <ele>188</ele>
        <time>2018-04-20T09:54:38Z</time>
      </trkpt>
      <trkpt lat="49.82173" lon="6.33327">
        <ele>188</ele>
        <time>2018-04-20T09:54:48Z</time>
      </trkpt>
      <trkpt lat="49.82175" lon="6.33325">
        <ele>187</ele>
        <time>2018-04-20T09:54:59Z</time>
      </trkpt>
      <trkpt lat="49.8218" lon="6.33331">
        <ele>186</ele>
        <time>2018-04-20T09:55:09Z</time>
      </trkpt>
      <trkpt lat="49.82189" lon="6.33343">
        <ele>187</ele>
        <time>2018-04-20T09:55:20Z</time>
      </trkpt>
      <trkpt lat="49.82199" lon="6.33351">
        <ele>188</ele>
        <time>2018-04-20T09:55:31Z</time>
      </trkpt>
      <trkpt lat="49.82207" lon="6.33361">
        <ele>189</ele>
        <time>2018-04-20T09:55:41Z</time>
      </trkpt>
      <trkpt lat="49.82214" lon="6.33373">
        <ele>191</ele>
        <time>2018-04-20T09:55:52Z</time>
      </trkpt>
      <trkpt lat="49.8222" lon="6.3338">
        <ele>192</ele>
        <time>2018-04-20T09:56:02Z</time>
      </trkpt>
      <trkpt lat="49.82224" lon="6.33389">
        <ele>193</ele>
        <time>2018-04-20T09:56:13Z</time>
      </trkpt>
      <trkpt lat="49.82228" lon="6.33393">
        <ele>194</ele>
        <time>2018-04-20T09:56:23Z</time>
      </trkpt>
      <trkpt lat="49.82232" lon="6.33398">
        <ele>195</ele>
        <time>2018-04-20T09:56:34Z</time>
      </trkpt>
      <trkpt lat="49.82236" lon="6.33403">
        <ele>195</ele>
        <time>2018-04-20T09:56:44Z</time>
      </trkpt>
      <trkpt lat="49.82238" lon="6.33406">
        <ele>195</ele>
        <time>2018-04-20T09:56:54Z</time>
      </trkpt>
      <trkpt lat="49.82243" lon="6.33412">
        <ele>195</ele>
        <time>2018-04-20T09:57:04Z</time>
      </trkpt>
      <trkpt lat="49.82251" lon="6.33419">
        <ele>196</ele>
        <time>2018-04-20T09:57:15Z</time>
      </trkpt>
      <trkpt lat="49.82257" lon="6.33425">
        <ele>197</ele>
        <time>2018-04-20T09:57:25Z</time>
      </trkpt>
      <trkpt lat="49.82261" lon="6.33433">
        <ele>197</ele>
        <time>2018-04-20T09:57:36Z</time>
      </trkpt>
      <trkpt lat="49.82264" lon="6.33442">
        <ele>199</ele>
        <time>2018-04-20T09:57:46Z</time>
      </trkpt>
      <trkpt lat="49.82269" lon="6.33446">
        <ele>199</ele>
        <time>2018-04-20T09:57:57Z</time>
      </trkpt>
      <trkpt lat="49.82275" lon="6.33454">
        <ele>198</ele>
        <time>2018-04-20T09:58:08Z</time>
      </trkpt>
      <trkpt lat="49.82281" lon="6.33462">
        <ele>197</ele>
        <time>2018-04-20T09:58:18Z</time>
      </trkpt>
      <trkpt lat="49.82285" lon="6.33475">
        <ele>198</ele>
        <time>2018-04-20T09:58:29Z</time>
      </trkpt>
      <trkpt lat="49.82291" lon="6.33488">
        <ele>197</ele>
        <time>2018-04-20T09:58:39Z</time>
      </trkpt>
      <trkpt lat="49.82293" lon="6.33502">
        <ele>197</ele>
        <time>2018-04-20T09:58:49Z</time>
      </trkpt>
      <trkpt lat="49.82297" lon="6.33516">
        <ele>198</ele>
        <time>2018-04-20T09:58:59Z</time>
      </trkpt>
      <trkpt lat="49.82302" lon="6.33525">
        <ele>198</ele>
        <time>2018-04-20T09:59:10Z</time>
      </trkpt>
      <trkpt lat="49.82304" lon="6.33536">
        <ele>198</ele>
        <time>2018-04-20T09:59:20Z</time>
      </trkpt>
      <trkpt lat="49.82308" lon="6.33553">
        <ele>198</ele>
        <time>2018-04-20T09:59:31Z</time>
      </trkpt>
      <trkpt lat="49.82308" lon="6.33561">
        <ele>198</ele>
        <time>2018-04-20T09:59:41Z</time>
      </trkpt>
      <trkpt lat="49.82311" lon="6.33576">
        <ele>197</ele>
        <time>2018-04-20T09:59:52Z</time>
      </trkpt>
      <trkpt lat="49.82313" lon="6.33584">
        <ele>197</ele>
        <time>2018-04-20T10:00:02Z</time>
      </trkpt>
      <trkpt lat="49.82313" lon="6.336">
        <ele>196</ele>
        <time>2018-04-20T10:00:13Z</time>
      </trkpt>
      <trkpt lat="49.82317" lon="6.33611">
        <ele>197</ele>
        <time>2018-04-20T10:00:23Z</time>
      </trkpt>
      <trkpt lat="49.82319" lon="6.33625">
        <ele>195</ele>
        <time>2018-04-20T10:00:34Z</time>
      </trkpt>
      <trkpt lat="49.82319" lon="6.33639">
        <ele>195</ele>
        <time>2018-04-20T10:00:44Z</time>
      </trkpt>
      <trkpt lat="49.8232" lon="6.33655">
        <ele>196</ele>
        <time>2018-04-20T10:00:55Z</time>
      </trkpt>
      <trkpt lat="49.82323" lon="6.33664">
        <ele>196</ele>
        <time>2018-04-20T10:01:06Z</time>
      </trkpt>
      <trkpt lat="49.82328" lon="6.33667">
        <ele>194</ele>
        <time>2018-04-20T10:01:16Z</time>
      </trkpt>
      <trkpt lat="49.82334" lon="6.33677">
        <ele>193</ele>
        <time>2018-04-20T10:01:27Z</time>
      </trkpt>
      <trkpt lat="49.82343" lon="6.33679">
        <ele>192</ele>
        <time>2018-04-20T10:01:37Z</time>
      </trkpt>
      <trkpt lat="49.8235" lon="6.33681">
        <ele>193</ele>
        <time>2018-04-20T10:01:47Z</time>
      </trkpt>
      <trkpt lat="49.82354" lon="6.33689">
        <ele>194</ele>
        <time>2018-04-20T10:01:58Z</time>
      </trkpt>
      <trkpt lat="49.82363" lon="6.33701">
        <ele>194</ele>
        <time>2018-04-20T10:02:08Z</time>
      </trkpt>
      <trkpt lat="49.82365" lon="6.33702">
        <ele>195</ele>
        <time>2018-04-20T10:02:18Z</time>
      </trkpt>
      <trkpt lat="49.82353" lon="6.33712">
        <ele>195</ele>
        <time>2018-04-20T10:02:29Z</time>
      </trkpt>
      <trkpt lat="49.82343" lon="6.33721">
        <ele>195</ele>
        <time>2018-04-20T10:02:40Z</time>
      </trkpt>
      <trkpt lat="49.82342" lon="6.33722">
        <ele>195</ele>
        <time>2018-04-20T10:02:50Z</time>
      </trkpt>
      <trkpt lat="49.82343" lon="6.3372">
        <ele>197</ele>
        <time>2018-04-20T10:03:01Z</time>
      </trkpt>
      <trkpt lat="49.82347" lon="6.33721">
        <ele>198</ele>
        <time>2018-04-20T10:03:11Z</time>
      </trkpt>
      <trkpt lat="49.82351" lon="6.33721">
        <ele>199</ele>
        <time>2018-04-20T10:03:21Z</time>
      </trkpt>
      <trkpt lat="49.82353" lon="6.33717">
        <ele>200</ele>
        <time>2018-04-20T10:03:32Z</time>
      </trkpt>
      <trkpt lat="49.82361" lon="6.33697">
        <ele>200</ele>
        <time>2018-04-20T10:03:43Z</time>
      </trkpt>
      <trkpt lat="49.82363" lon="6.33696">
        <ele>197</ele>
        <time>2018-04-20T10:03:54Z</time>
      </trkpt>
      <trkpt lat="49.82364" lon="6.33705">
        <ele>196</ele>
        <time>2018-04-20T10:04:04Z</time>
      </trkpt>
      <trkpt lat="49.82364" lon="6.33719">
        <ele>195</ele>
        <time>2018-04-20T10:04:15Z</time>
      </trkpt>
      <trkpt lat="49.82366" lon="6.33725">
        <ele>194</ele>
        <time>2018-04-20T10:04:25Z</time>
      </trkpt>
      <trkpt lat="49.82373" lon="6.33726">
        <ele>194</ele>
        <time>2018-04-20T10:04:36Z</time>
      </trkpt>
      <trkpt lat="49.82382" lon="6.33725">
        <ele>195</ele>
        <time>2018-04-20T10:04:46Z</time>
      </trkpt>
      <trkpt lat="49.82386" lon="6.33731">
        <ele>196</ele>
        <time>2018-04-20T10:04:56Z</time>
      </trkpt>
      <trkpt lat="49.8239" lon="6.33742">
        <ele>197</ele>
        <time>2018-04-20T10:05:07Z</time>
      </trkpt>
      <trkpt lat="49.82397" lon="6.3375">
        <ele>198</ele>
        <time>2018-04-20T10:05:17Z</time>
      </trkpt>
      <trkpt lat="49.82401" lon="6.33764">
        <ele>199</ele>
        <time>2018-04-20T10:05:27Z</time>
      </trkpt>
      <trkpt lat="49.82404" lon="6.33775">
        <ele>201</ele>
        <time>2018-04-20T10:05:37Z</time>
      </trkpt>
      <trkpt lat="49.82384" lon="6.33758">
        <ele>202</ele>
        <time>2018-04-20T10:05:50Z</time>
      </trkpt>
      <trkpt lat="49.82394" lon="6.33779">
        <ele>203</ele>
        <time>2018-04-20T10:06:01Z</time>
      </trkpt>
      <trkpt lat="49.82402" lon="6.33796">
        <ele>204</ele>
        <time>2018-04-20T10:06:11Z</time>
      </trkpt>
      <trkpt lat="49.82404" lon="6.33805">
        <ele>205</ele>
        <time>2018-04-20T10:06:21Z</time>
      </trkpt>
      <trkpt lat="49.824" lon="6.33812">
        <ele>205</ele>
        <time>2018-04-20T10:06:31Z</time>
      </trkpt>
      <trkpt lat="49.82401" lon="6.33816">
        <ele>205</ele>
        <time>2018-04-20T10:06:42Z</time>
      </trkpt>
      <trkpt lat="49.82407" lon="6.33819">
        <ele>206</ele>
        <time>2018-04-20T10:06:52Z</time>
      </trkpt>
      <trkpt lat="49.82414" lon="6.33821">
        <ele>206</ele>
        <time>2018-04-20T10:07:02Z</time>
      </trkpt>
      <trkpt lat="49.82422" lon="6.33826">
        <ele>207</ele>
        <time>2018-04-20T10:07:13Z</time>
      </trkpt>
      <trkpt lat="49.82428" lon="6.3383">
        <ele>207</ele>
        <time>2018-04-20T10:07:23Z</time>
      </trkpt>
      <trkpt lat="49.82433" lon="6.33839">
        <ele>207</ele>
        <time>2018-04-20T10:07:34Z</time>
      </trkpt>
      <trkpt lat="49.82434" lon="6.33831">
        <ele>207</ele>
        <time>2018-04-20T10:07:45Z</time>
      </trkpt>
      <trkpt lat="49.82438" lon="6.3383">
        <ele>207</ele>
        <time>2018-04-20T10:07:55Z</time>
      </trkpt>
      <trkpt lat="49.82443" lon="6.33845">
        <ele>209</ele>
        <time>2018-04-20T10:08:06Z</time>
      </trkpt>
      <trkpt lat="49.82444" lon="6.33857">
        <ele>210</ele>
        <time>2018-04-20T10:08:16Z</time>
      </trkpt>
      <trkpt lat="49.8246" lon="6.33861">
        <ele>210</ele>
        <time>2018-04-20T10:08:27Z</time>
      </trkpt>
      <trkpt lat="49.82487" lon="6.33836">
        <ele>210</ele>
        <time>2018-04-20T10:08:42Z</time>
      </trkpt>
      <trkpt lat="49.82454" lon="6.33865">
        <ele>210</ele>
        <time>2018-04-20T10:08:52Z</time>
      </trkpt>
      <trkpt lat="49.82455" lon="6.33864">
        <ele>211</ele>
        <time>2018-04-20T10:09:03Z</time>
      </trkpt>
      <trkpt lat="49.82447" lon="6.33867">
        <ele>211</ele>
        <time>2018-04-20T10:09:13Z</time>
      </trkpt>
      <trkpt lat="49.82438" lon="6.33869">
        <ele>211</ele>
        <time>2018-04-20T10:09:23Z</time>
      </trkpt>
      <trkpt lat="49.82439" lon="6.33871">
        <ele>211</ele>
        <time>2018-04-20T10:09:34Z</time>
      </trkpt>
      <trkpt lat="49.82442" lon="6.33873">
        <ele>211</ele>
        <time>2018-04-20T10:09:44Z</time>
      </trkpt>
      <trkpt lat="49.82445" lon="6.33879">
        <ele>211</ele>
        <time>2018-04-20T10:09:55Z</time>
      </trkpt>
      <trkpt lat="49.82439" lon="6.3388">
        <ele>211</ele>
        <time>2018-04-20T10:10:05Z</time>
      </trkpt>
      <trkpt lat="49.82435" lon="6.3387">
        <ele>211</ele>
        <time>2018-04-20T10:10:17Z</time>
      </trkpt>
      <trkpt lat="49.82429" lon="6.33858">
        <ele>211</ele>
        <time>2018-04-20T10:10:27Z</time>
      </trkpt>
      <trkpt lat="49.82431" lon="6.3387">
        <ele>212</ele>
        <time>2018-04-20T10:10:38Z</time>
      </trkpt>
      <trkpt lat="49.8244" lon="6.3388">
        <ele>214</ele>
        <time>2018-04-20T10:10:49Z</time>
      </trkpt>
      <trkpt lat="49.82444" lon="6.3389">
        <ele>214</ele>
        <time>2018-04-20T10:10:59Z</time>
      </trkpt>
      <trkpt lat="49.82449" lon="6.339">
        <ele>214</ele>
        <time>2018-04-20T10:11:09Z</time>
      </trkpt>
      <trkpt lat="49.82447" lon="6.33906">
        <ele>216</ele>
        <time>2018-04-20T10:11:19Z</time>
      </trkpt>
      <trkpt lat="49.82448" lon="6.33915">
        <ele>216</ele>
        <time>2018-04-20T10:11:30Z</time>
      </trkpt>
      <trkpt lat="49.82449" lon="6.33921">
        <ele>217</ele>
        <time>2018-04-20T10:11:40Z</time>
      </trkpt>
      <trkpt lat="49.82451" lon="6.33929">
        <ele>217</ele>
        <time>2018-04-20T10:11:51Z</time>
      </trkpt>
      <trkpt lat="49.82453" lon="6.3393">
        <ele>217</ele>
        <time>2018-04-20T10:12:01Z</time>
      </trkpt>
      <trkpt lat="49.82455" lon="6.3393">
        <ele>217</ele>
        <time>2018-04-20T10:12:11Z</time>
      </trkpt>
      <trkpt lat="49.82455" lon="6.33929">
        <ele>217</ele>
        <time>2018-04-20T10:12:21Z</time>
      </trkpt>
      <trkpt lat="49.8245" lon="6.33931">
        <ele>217</ele>
        <time>2018-04-20T10:12:32Z</time>
      </trkpt>
      <trkpt lat="49.82451" lon="6.33935">
        <ele>217</ele>
        <time>2018-04-20T10:12:42Z</time>
      </trkpt>
      <trkpt lat="49.82454" lon="6.33929">
        <ele>217</ele>
        <time>2018-04-20T10:12:53Z</time>
      </trkpt>
      <trkpt lat="49.82448" lon="6.33922">
        <ele>217</ele>
        <time>2018-04-20T10:13:04Z</time>
      </trkpt>
      <trkpt lat="49.8245" lon="6.33918">
        <ele>217</ele>
        <time>2018-04-20T10:13:14Z</time>
      </trkpt>
      <trkpt lat="49.82454" lon="6.33924">
        <ele>217</ele>
        <time>2018-04-20T10:13:25Z</time>
      </trkpt>
      <trkpt lat="49.82455" lon="6.33939">
        <ele>217</ele>
        <time>2018-04-20T10:13:36Z</time>
      </trkpt>
      <trkpt lat="49.82454" lon="6.33946">
        <ele>217</ele>
        <time>2018-04-20T10:13:46Z</time>
      </trkpt>
      <trkpt lat="49.82448" lon="6.33949">
        <ele>217</ele>
        <time>2018-04-20T10:13:56Z</time>
      </trkpt>
      <trkpt lat="49.82446" lon="6.33949">
        <ele>217</ele>
        <time>2018-04-20T10:14:07Z</time>
      </trkpt>
      <trkpt lat="49.82449" lon="6.33956">
        <ele>217</ele>
        <time>2018-04-20T10:14:17Z</time>
      </trkpt>
      <trkpt lat="49.8245" lon="6.33974">
        <ele>217</ele>
        <time>2018-04-20T10:14:27Z</time>
      </trkpt>
      <trkpt lat="49.82453" lon="6.33986">
        <ele>217</ele>
        <time>2018-04-20T10:14:38Z</time>
      </trkpt>
      <trkpt lat="49.82461" lon="6.33985">
        <ele>217</ele>
        <time>2018-04-20T10:14:48Z</time>
      </trkpt>
      <trkpt lat="49.8247" lon="6.33974">
        <ele>217</ele>
        <time>2018-04-20T10:14:59Z</time>
      </trkpt>
      <trkpt lat="49.82463" lon="6.33983">
        <ele>217</ele>
        <time>2018-04-20T10:15:09Z</time>
      </trkpt>
      <trkpt lat="49.82455" lon="6.33988">
        <ele>217</ele>
        <time>2018-04-20T10:15:20Z</time>
      </trkpt>
      <trkpt lat="49.8246" lon="6.33986">
        <ele>217</ele>
        <time>2018-04-20T10:15:30Z</time>
      </trkpt>
      <trkpt lat="49.8246" lon="6.33982">
        <ele>217</ele>
        <time>2018-04-20T10:15:41Z</time>
      </trkpt>
      <trkpt lat="49.82451" lon="6.33988">
        <ele>217</ele>
        <time>2018-04-20T10:15:51Z</time>
      </trkpt>
      <trkpt lat="49.8198" lon="6.34288">
        <ele>218</ele>
        <time>2018-04-20T10:17:00Z</time>
      </trkpt>
      <trkpt lat="49.82378" lon="6.34036">
        <ele>218</ele>
        <time>2018-04-20T10:17:20Z</time>
      </trkpt>
      <trkpt lat="49.82429" lon="6.34012">
        <ele>218</ele>
        <time>2018-04-20T10:17:31Z</time>
      </trkpt>
      <trkpt lat="49.82441" lon="6.34018">
        <ele>218</ele>
        <time>2018-04-20T10:17:43Z</time>
      </trkpt>
      <trkpt lat="49.8246" lon="6.34007">
        <ele>218</ele>
        <time>2018-04-20T10:17:53Z</time>
      </trkpt>
      <trkpt lat="49.82476" lon="6.33993">
        <ele>218</ele>
        <time>2018-04-20T10:18:04Z</time>
      </trkpt>
      <trkpt lat="49.8248" lon="6.3399">
        <ele>218</ele>
        <time>2018-04-20T10:18:15Z</time>
      </trkpt>
      <trkpt lat="49.82473" lon="6.34002">
        <ele>219</ele>
        <time>2018-04-20T10:18:25Z</time>
      </trkpt>
      <trkpt lat="49.82468" lon="6.34016">
        <ele>219</ele>
        <time>2018-04-20T10:18:36Z</time>
      </trkpt>
      <trkpt lat="49.82462" lon="6.34034">
        <ele>219</ele>
        <time>2018-04-20T10:18:47Z</time>
      </trkpt>
      <trkpt lat="49.82461" lon="6.34054">
        <ele>219</ele>
        <time>2018-04-20T10:18:58Z</time>
      </trkpt>
      <trkpt lat="49.8246" lon="6.34069">
        <ele>219</ele>
        <time>2018-04-20T10:19:09Z</time>
      </trkpt>
      <trkpt lat="49.82457" lon="6.34083">
        <ele>220</ele>
        <time>2018-04-20T10:19:20Z</time>
      </trkpt>
      <trkpt lat="49.82455" lon="6.34089">
        <ele>220</ele>
        <time>2018-04-20T10:19:30Z</time>
      </trkpt>
      <trkpt lat="49.8245" lon="6.34094">
        <ele>220</ele>
        <time>2018-04-20T10:19:40Z</time>
      </trkpt>
      <trkpt lat="49.8245" lon="6.34105">
        <ele>220</ele>
        <time>2018-04-20T10:19:51Z</time>
      </trkpt>
      <trkpt lat="49.82448" lon="6.34115">
        <ele>221</ele>
        <time>2018-04-20T10:20:01Z</time>
      </trkpt>
      <trkpt lat="49.82438" lon="6.34122">
        <ele>220</ele>
        <time>2018-04-20T10:20:12Z</time>
      </trkpt>
      <trkpt lat="49.8244" lon="6.34124">
        <ele>221</ele>
        <time>2018-04-20T10:20:23Z</time>
      </trkpt>
      <trkpt lat="49.8244" lon="6.34125">
        <ele>222</ele>
        <time>2018-04-20T10:20:34Z</time>
      </trkpt>
      <trkpt lat="49.82438" lon="6.3413">
        <ele>223</ele>
        <time>2018-04-20T10:20:44Z</time>
      </trkpt>
      <trkpt lat="49.82446" lon="6.34132">
        <ele>223</ele>
        <time>2018-04-20T10:20:54Z</time>
      </trkpt>
      <trkpt lat="49.8246" lon="6.34144">
        <ele>224</ele>
        <time>2018-04-20T10:21:05Z</time>
      </trkpt>
      <trkpt lat="49.82462" lon="6.34145">
        <ele>225</ele>
        <time>2018-04-20T10:21:16Z</time>
      </trkpt>
      <trkpt lat="49.82459" lon="6.34143">
        <ele>225</ele>
        <time>2018-04-20T10:21:27Z</time>
      </trkpt>
      <trkpt lat="49.8246" lon="6.34146">
        <ele>225</ele>
        <time>2018-04-20T10:21:37Z</time>
      </trkpt>
      <trkpt lat="49.82462" lon="6.34152">
        <ele>225</ele>
        <time>2018-04-20T10:21:47Z</time>
      </trkpt>
      <trkpt lat="49.82457" lon="6.34169">
        <ele>226</ele>
        <time>2018-04-20T10:21:57Z</time>
      </trkpt>
      <trkpt lat="49.82465" lon="6.34184">
        <ele>226</ele>
        <time>2018-04-20T10:22:08Z</time>
      </trkpt>
      <trkpt lat="49.82471" lon="6.34193">
        <ele>226</ele>
        <time>2018-04-20T10:22:18Z</time>
      </trkpt>
      <trkpt lat="49.8247" lon="6.342">
        <ele>226</ele>
        <time>2018-04-20T10:22:28Z</time>
      </trkpt>
      <trkpt lat="49.82471" lon="6.34209">
        <ele>227</ele>
        <time>2018-04-20T10:22:38Z</time>
      </trkpt>
      <trkpt lat="49.82475" lon="6.34221">
        <ele>227</ele>
        <time>2018-04-20T10:22:48Z</time>
      </trkpt>
      <trkpt lat="49.82478" lon="6.34234">
        <ele>228</ele>
        <time>2018-04-20T10:22:58Z</time>
      </trkpt>
      <trkpt lat="49.8248" lon="6.34243">
        <ele>229</ele>
        <time>2018-04-20T10:23:08Z</time>
      </trkpt>
      <trkpt lat="49.8248" lon="6.34249">
        <ele>229</ele>
        <time>2018-04-20T10:23:18Z</time>
      </trkpt>
      <trkpt lat="49.82483" lon="6.34241">
        <ele>229</ele>
        <time>2018-04-20T10:23:28Z</time>
      </trkpt>
      <trkpt lat="49.82481" lon="6.34247">
        <ele>230</ele>
        <time>2018-04-20T10:23:38Z</time>
      </trkpt>
      <trkpt lat="49.82482" lon="6.34254">
        <ele>232</ele>
        <time>2018-04-20T10:23:48Z</time>
      </trkpt>
      <trkpt lat="49.82484" lon="6.34263">
        <ele>234</ele>
        <time>2018-04-20T10:23:58Z</time>
      </trkpt>
      <trkpt lat="49.82485" lon="6.34274">
        <ele>235</ele>
        <time>2018-04-20T10:24:09Z</time>
      </trkpt>
      <trkpt lat="49.82483" lon="6.34282">
        <ele>237</ele>
        <time>2018-04-20T10:24:19Z</time>
      </trkpt>
      <trkpt lat="49.82478" lon="6.3429">
        <ele>238</ele>
        <time>2018-04-20T10:24:30Z</time>
      </trkpt>
      <trkpt lat="49.82478" lon="6.34288">
        <ele>238</ele>
        <time>2018-04-20T10:24:40Z</time>
      </trkpt>
      <trkpt lat="49.8248" lon="6.34297">
        <ele>239</ele>
        <time>2018-04-20T10:24:51Z</time>
      </trkpt>
      <trkpt lat="49.82481" lon="6.34305">
        <ele>239</ele>
        <time>2018-04-20T10:25:01Z</time>
      </trkpt>
      <trkpt lat="49.82482" lon="6.34318">
        <ele>240</ele>
        <time>2018-04-20T10:25:12Z</time>
      </trkpt>
      <trkpt lat="49.8248" lon="6.34328">
        <ele>240</ele>
        <time>2018-04-20T10:25:23Z</time>
      </trkpt>
      <trkpt lat="49.8248" lon="6.3434">
        <ele>242</ele>
        <time>2018-04-20T10:25:33Z</time>
      </trkpt>
      <trkpt lat="49.82482" lon="6.34354">
        <ele>242</ele>
        <time>2018-04-20T10:25:44Z</time>
      </trkpt>
      <trkpt lat="49.82483" lon="6.34365">
        <ele>243</ele>
        <time>2018-04-20T10:25:55Z</time>
      </trkpt>
      <trkpt lat="49.82486" lon="6.34377">
        <ele>242</ele>
        <time>2018-04-20T10:26:05Z</time>
      </trkpt>
      <trkpt lat="49.82493" lon="6.34389">
        <ele>242</ele>
        <time>2018-04-20T10:26:15Z</time>
      </trkpt>
      <trkpt lat="49.82496" lon="6.34401">
        <ele>243</ele>
        <time>2018-04-20T10:26:26Z</time>
      </trkpt>
      <trkpt lat="49.82496" lon="6.34414">
        <ele>244</ele>
        <time>2018-04-20T10:26:37Z</time>
      </trkpt>
      <trkpt lat="49.82491" lon="6.34425">
        <ele>245</ele>
        <time>2018-04-20T10:26:48Z</time>
      </trkpt>
      <trkpt lat="49.8249" lon="6.3443">
        <ele>246</ele>
        <time>2018-04-20T10:26:58Z</time>
      </trkpt>
      <trkpt lat="49.82491" lon="6.34436">
        <ele>246</ele>
        <time>2018-04-20T10:27:08Z</time>
      </trkpt>
      <trkpt lat="49.82488" lon="6.34447">
        <ele>247</ele>
        <time>2018-04-20T10:27:19Z</time>
      </trkpt>
      <trkpt lat="49.82481" lon="6.34452">
        <ele>249</ele>
        <time>2018-04-20T10:27:29Z</time>
      </trkpt>
      <trkpt lat="49.82473" lon="6.34456">
        <ele>251</ele>
        <time>2018-04-20T10:27:39Z</time>
      </trkpt>
      <trkpt lat="49.82464" lon="6.34456">
        <ele>252</ele>
        <time>2018-04-20T10:27:50Z</time>
      </trkpt>
      <trkpt lat="49.8246" lon="6.34455">
        <ele>253</ele>
        <time>2018-04-20T10:28:00Z</time>
      </trkpt>
      <trkpt lat="49.82453" lon="6.34453">
        <ele>254</ele>
        <time>2018-04-20T10:28:10Z</time>
      </trkpt>
      <trkpt lat="49.82444" lon="6.34459">
        <ele>255</ele>
        <time>2018-04-20T10:28:20Z</time>
      </trkpt>
      <trkpt lat="49.82435" lon="6.34462">
        <ele>256</ele>
        <time>2018-04-20T10:28:30Z</time>
      </trkpt>
      <trkpt lat="49.82426" lon="6.34465">
        <ele>256</ele>
        <time>2018-04-20T10:28:41Z</time>
      </trkpt>
      <trkpt lat="49.82418" lon="6.34466">
        <ele>257</ele>
        <time>2018-04-20T10:28:51Z</time>
      </trkpt>
      <trkpt lat="49.82409" lon="6.34469">
        <ele>258</ele>
        <time>2018-04-20T10:29:02Z</time>
      </trkpt>
      <trkpt lat="49.824" lon="6.34472">
        <ele>259</ele>
        <time>2018-04-20T10:29:12Z</time>
      </trkpt>
      <trkpt lat="49.82391" lon="6.34474">
        <ele>260</ele>
        <time>2018-04-20T10:29:23Z</time>
      </trkpt>
      <trkpt lat="49.82381" lon="6.34478">
        <ele>260</ele>
        <time>2018-04-20T10:29:34Z</time>
      </trkpt>
      <trkpt lat="49.82372" lon="6.34479">
        <ele>261</ele>
        <time>2018-04-20T10:29:44Z</time>
      </trkpt>
      <trkpt lat="49.82363" lon="6.34481">
        <ele>261</ele>
        <time>2018-04-20T10:29:55Z</time>
      </trkpt>
      <trkpt lat="49.82356" lon="6.34484">
        <ele>262</ele>
        <time>2018-04-20T10:30:05Z</time>
      </trkpt>
      <trkpt lat="49.82353" lon="6.34489">
        <ele>262</ele>
        <time>2018-04-20T10:30:16Z</time>
      </trkpt>
      <trkpt lat="49.82353" lon="6.3449">
        <ele>261</ele>
        <time>2018-04-20T10:30:26Z</time>
      </trkpt>
      <trkpt lat="49.82352" lon="6.34491">
        <ele>261</ele>
        <time>2018-04-20T10:30:38Z</time>
      </trkpt>
      <trkpt lat="49.82351" lon="6.34492">
        <ele>261</ele>
        <time>2018-04-20T10:30:48Z</time>
      </trkpt>
      <trkpt lat="49.82351" lon="6.34492">
        <ele>261</ele>
        <time>2018-04-20T10:31:00Z</time>
      </trkpt>
      <trkpt lat="49.82351" lon="6.34492">
        <ele>261</ele>
        <time>2018-04-20T10:31:11Z</time>
      </trkpt>
      <trkpt lat="49.8235" lon="6.34491">
        <ele>261</ele>
        <time>2018-04-20T10:31:22Z</time>
      </trkpt>
      <trkpt lat="49.8235" lon="6.34491">
        <ele>261</ele>
        <time>2018-04-20T10:31:34Z</time>
      </trkpt>
      <trkpt lat="49.8235" lon="6.34491">
        <ele>261</ele>
        <time>2018-04-20T10:31:49Z</time>
      </trkpt>
      <trkpt lat="49.82351" lon="6.34492">
        <ele>261</ele>
        <time>2018-04-20T10:32:01Z</time>
      </trkpt>
      <trkpt lat="49.82352" lon="6.34493">
        <ele>261</ele>
        <time>2018-04-20T10:32:13Z</time>
      </trkpt>
      <trkpt lat="49.82352" lon="6.34494">
        <ele>261</ele>
        <time>2018-04-20T10:32:24Z</time>
      </trkpt>
      <trkpt lat="49.82352" lon="6.34493">
        <ele>262</ele>
        <time>2018-04-20T10:32:35Z</time>
      </trkpt>
      <trkpt lat="49.82351" lon="6.34493">
        <ele>262</ele>
        <time>2018-04-20T10:32:45Z</time>
      </trkpt>
      <trkpt lat="49.82352" lon="6.34493">
        <ele>261</ele>
        <time>2018-04-20T10:32:56Z</time>
      </trkpt>
      <trkpt lat="49.82352" lon="6.3449">
        <ele>261</ele>
        <time>2018-04-20T10:33:07Z</time>
      </trkpt>
      <trkpt lat="49.82352" lon="6.34488">
        <ele>261</ele>
        <time>2018-04-20T10:33:19Z</time>
      </trkpt>
      <trkpt lat="49.82352" lon="6.34487">
        <ele>262</ele>
        <time>2018-04-20T10:33:29Z</time>
      </trkpt>
      <trkpt lat="49.82352" lon="6.34487">
        <ele>261</ele>
        <time>2018-04-20T10:33:39Z</time>
      </trkpt>
      <trkpt lat="49.82353" lon="6.34488">
        <ele>262</ele>
        <time>2018-04-20T10:33:50Z</time>
      </trkpt>
      <trkpt lat="49.82353" lon="6.34488">
        <ele>261</ele>
        <time>2018-04-20T10:34:02Z</time>
      </trkpt>
      <trkpt lat="49.82352" lon="6.34487">
        <ele>262</ele>
        <time>2018-04-20T10:34:12Z</time>
      </trkpt>
      <trkpt lat="49.82352" lon="6.34487">
        <ele>261</ele>
        <time>2018-04-20T10:34:24Z</time>
      </trkpt>
      <trkpt lat="49.82352" lon="6.34487">
        <ele>261</ele>
        <time>2018-04-20T10:34:34Z</time>
      </trkpt>
      <trkpt lat="49.82352" lon="6.34488">
        <ele>261</ele>
        <time>2018-04-20T10:34:45Z</time>
      </trkpt>
      <trkpt lat="49.82352" lon="6.34489">
        <ele>262</ele>
        <time>2018-04-20T10:34:59Z</time>
      </trkpt>
      <trkpt lat="49.82352" lon="6.3449">
        <ele>261</ele>
        <time>2018-04-20T10:35:09Z</time>
      </trkpt>
      <trkpt lat="49.82353" lon="6.34492">
        <ele>262</ele>
        <time>2018-04-20T10:35:20Z</time>
      </trkpt>
      <trkpt lat="49.82353" lon="6.34492">
        <ele>262</ele>
        <time>2018-04-20T10:35:32Z</time>
      </trkpt>
      <trkpt lat="49.82353" lon="6.34492">
        <ele>262</ele>
        <time>2018-04-20T10:35:44Z</time>
      </trkpt>
      <trkpt lat="49.82353" lon="6.34491">
        <ele>262</ele>
        <time>2018-04-20T10:35:56Z</time>
      </trkpt>
      <trkpt lat="49.82352" lon="6.34491">
        <ele>262</ele>
        <time>2018-04-20T10:36:06Z</time>
      </trkpt>
      <trkpt lat="49.82351" lon="6.3449">
        <ele>262</ele>
        <time>2018-04-20T10:36:16Z</time>
      </trkpt>
      <trkpt lat="49.82351" lon="6.3449">
        <ele>262</ele>
        <time>2018-04-20T10:36:27Z</time>
      </trkpt>
      <trkpt lat="49.82348" lon="6.34489">
        <ele>262</ele>
        <time>2018-04-20T10:36:37Z</time>
      </trkpt>
      <trkpt lat="49.82339" lon="6.34492">
        <ele>264</ele>
        <time>2018-04-20T10:36:48Z</time>
      </trkpt>
      <trkpt lat="49.8233" lon="6.34495">
        <ele>263</ele>
        <time>2018-04-20T10:36:59Z</time>
      </trkpt>
      <trkpt lat="49.82322" lon="6.34498">
        <ele>263</ele>
        <time>2018-04-20T10:37:09Z</time>
      </trkpt>
      <trkpt lat="49.82315" lon="6.34507">
        <ele>263</ele>
        <time>2018-04-20T10:37:19Z</time>
      </trkpt>
      <trkpt lat="49.82314" lon="6.34509">
        <ele>263</ele>
        <time>2018-04-20T10:37:29Z</time>
      </trkpt>
      <trkpt lat="49.82313" lon="6.34508">
        <ele>263</ele>
        <time>2018-04-20T10:37:39Z</time>
      </trkpt>
      <trkpt lat="49.82312" lon="6.34509">
        <ele>263</ele>
        <time>2018-04-20T10:37:50Z</time>
      </trkpt>
      <trkpt lat="49.82311" lon="6.34509">
        <ele>263</ele>
        <time>2018-04-20T10:38:00Z</time>
      </trkpt>
      <trkpt lat="49.82311" lon="6.34507">
        <ele>263</ele>
        <time>2018-04-20T10:38:11Z</time>
      </trkpt>
      <trkpt lat="49.82309" lon="6.34515">
        <ele>263</ele>
        <time>2018-04-20T10:38:22Z</time>
      </trkpt>
      <trkpt lat="49.82308" lon="6.34529">
        <ele>263</ele>
        <time>2018-04-20T10:38:33Z</time>
      </trkpt>
      <trkpt lat="49.82307" lon="6.34546">
        <ele>263</ele>
        <time>2018-04-20T10:38:43Z</time>
      </trkpt>
      <trkpt lat="49.82309" lon="6.34563">
        <ele>263</ele>
        <time>2018-04-20T10:38:54Z</time>
      </trkpt>
      <trkpt lat="49.82311" lon="6.3458">
        <ele>263</ele>
        <time>2018-04-20T10:39:05Z</time>
      </trkpt>
      <trkpt lat="49.82312" lon="6.34596">
        <ele>263</ele>
        <time>2018-04-20T10:39:15Z</time>
      </trkpt>
      <trkpt lat="49.8231" lon="6.3461">
        <ele>263</ele>
        <time>2018-04-20T10:39:25Z</time>
      </trkpt>
      <trkpt lat="49.82306" lon="6.34624">
        <ele>264</ele>
        <time>2018-04-20T10:39:35Z</time>
      </trkpt>
      <trkpt lat="49.82299" lon="6.34639">
        <ele>264</ele>
        <time>2018-04-20T10:39:46Z</time>
      </trkpt>
      <trkpt lat="49.82292" lon="6.34648">
        <ele>264</ele>
        <time>2018-04-20T10:39:56Z</time>
      </trkpt>
      <trkpt lat="49.8229" lon="6.34658">
        <ele>264</ele>
        <time>2018-04-20T10:40:06Z</time>
      </trkpt>
      <trkpt lat="49.82291" lon="6.34676">
        <ele>264</ele>
        <time>2018-04-20T10:40:17Z</time>
      </trkpt>
      <trkpt lat="49.82284" lon="6.34688">
        <ele>264</ele>
        <time>2018-04-20T10:40:27Z</time>
      </trkpt>
      <trkpt lat="49.82273" lon="6.34699">
        <ele>264</ele>
        <time>2018-04-20T10:40:38Z</time>
      </trkpt>
      <trkpt lat="49.82262" lon="6.34706">
        <ele>264</ele>
        <time>2018-04-20T10:40:49Z</time>
      </trkpt>
      <trkpt lat="49.82264" lon="6.34718">
        <ele>265</ele>
        <time>2018-04-20T10:41:00Z</time>
      </trkpt>
      <trkpt lat="49.82266" lon="6.34731">
        <ele>265</ele>
        <time>2018-04-20T10:41:10Z</time>
      </trkpt>
      <trkpt lat="49.82268" lon="6.34745">
        <ele>266</ele>
        <time>2018-04-20T10:41:20Z</time>
      </trkpt>
      <trkpt lat="49.82265" lon="6.34752">
        <ele>266</ele>
        <time>2018-04-20T10:41:30Z</time>
      </trkpt>
      <trkpt lat="49.82254" lon="6.34753">
        <ele>266</ele>
        <time>2018-04-20T10:41:41Z</time>
      </trkpt>
      <trkpt lat="49.82244" lon="6.34758">
        <ele>265</ele>
        <time>2018-04-20T10:41:51Z</time>
      </trkpt>
      <trkpt lat="49.82231" lon="6.34761">
        <ele>266</ele>
        <time>2018-04-20T10:42:02Z</time>
      </trkpt>
      <trkpt lat="49.8222" lon="6.34766">
        <ele>266</ele>
        <time>2018-04-20T10:42:12Z</time>
      </trkpt>
      <trkpt lat="49.82211" lon="6.3477">
        <ele>267</ele>
        <time>2018-04-20T10:42:22Z</time>
      </trkpt>
      <trkpt lat="49.82202" lon="6.34773">
        <ele>267</ele>
        <time>2018-04-20T10:42:33Z</time>
      </trkpt>
      <trkpt lat="49.82199" lon="6.34776">
        <ele>267</ele>
        <time>2018-04-20T10:42:43Z</time>
      </trkpt>
      <trkpt lat="49.82199" lon="6.34775">
        <ele>267</ele>
        <time>2018-04-20T10:42:53Z</time>
      </trkpt>
      <trkpt lat="49.822" lon="6.34772">
        <ele>267</ele>
        <time>2018-04-20T10:43:03Z</time>
      </trkpt>
      <trkpt lat="49.82199" lon="6.34773">
        <ele>267</ele>
        <time>2018-04-20T10:43:14Z</time>
      </trkpt>
      <trkpt lat="49.82199" lon="6.34773">
        <ele>267</ele>
        <time>2018-04-20T10:43:24Z</time>
      </trkpt>
      <trkpt lat="49.82199" lon="6.34773">
        <ele>267</ele>
        <time>2018-04-20T10:43:35Z</time>
      </trkpt>
      <trkpt lat="49.82198" lon="6.34776">
        <ele>267</ele>
        <time>2018-04-20T10:43:46Z</time>
      </trkpt>
      <trkpt lat="49.82198" lon="6.34777">
        <ele>267</ele>
        <time>2018-04-20T10:43:56Z</time>
      </trkpt>
      <trkpt lat="49.82197" lon="6.34777">
        <ele>267</ele>
        <time>2018-04-20T10:44:08Z</time>
      </trkpt>
      <trkpt lat="49.82196" lon="6.34777">
        <ele>267</ele>
        <time>2018-04-20T10:44:19Z</time>
      </trkpt>
      <trkpt lat="49.82193" lon="6.34778">
        <ele>267</ele>
        <time>2018-04-20T10:44:30Z</time>
      </trkpt>
      <trkpt lat="49.82189" lon="6.34777">
        <ele>267</ele>
        <time>2018-04-20T10:44:40Z</time>
      </trkpt>
      <trkpt lat="49.82185" lon="6.34778">
        <ele>268</ele>
        <time>2018-04-20T10:44:50Z</time>
      </trkpt>
      <trkpt lat="49.82174" lon="6.3478">
        <ele>268</ele>
        <time>2018-04-20T10:45:00Z</time>
      </trkpt>
      <trkpt lat="49.82164" lon="6.34783">
        <ele>268</ele>
        <time>2018-04-20T10:45:11Z</time>
      </trkpt>
      <trkpt lat="49.82157" lon="6.34787">
        <ele>268</ele>
        <time>2018-04-20T10:45:21Z</time>
      </trkpt>
      <trkpt lat="49.82155" lon="6.34789">
        <ele>269</ele>
        <time>2018-04-20T10:45:32Z</time>
      </trkpt>
      <trkpt lat="49.82163" lon="6.34784">
        <ele>269</ele>
        <time>2018-04-20T10:45:43Z</time>
      </trkpt>
      <trkpt lat="49.82172" lon="6.3478">
        <ele>268</ele>
        <time>2018-04-20T10:45:53Z</time>
      </trkpt>
      <trkpt lat="49.82184" lon="6.34775">
        <ele>268</ele>
        <time>2018-04-20T10:46:04Z</time>
      </trkpt>
      <trkpt lat="49.82195" lon="6.34773">
        <ele>267</ele>
        <time>2018-04-20T10:46:14Z</time>
      </trkpt>
      <trkpt lat="49.82201" lon="6.34782">
        <ele>267</ele>
        <time>2018-04-20T10:46:25Z</time>
      </trkpt>
      <trkpt lat="49.82202" lon="6.34796">
        <ele>267</ele>
        <time>2018-04-20T10:46:35Z</time>
      </trkpt>
      <trkpt lat="49.82208" lon="6.34807">
        <ele>268</ele>
        <time>2018-04-20T10:46:45Z</time>
      </trkpt>
      <trkpt lat="49.82214" lon="6.34824">
        <ele>268</ele>
        <time>2018-04-20T10:46:56Z</time>
      </trkpt>
      <trkpt lat="49.82211" lon="6.34835">
        <ele>267</ele>
        <time>2018-04-20T10:47:07Z</time>
      </trkpt>
      <trkpt lat="49.82204" lon="6.34845">
        <ele>268</ele>
        <time>2018-04-20T10:47:18Z</time>
      </trkpt>
      <trkpt lat="49.82197" lon="6.34849">
        <ele>268</ele>
        <time>2018-04-20T10:47:28Z</time>
      </trkpt>
      <trkpt lat="49.8219" lon="6.34856">
        <ele>269</ele>
        <time>2018-04-20T10:47:39Z</time>
      </trkpt>
      <trkpt lat="49.82183" lon="6.34865">
        <ele>269</ele>
        <time>2018-04-20T10:47:49Z</time>
      </trkpt>
      <trkpt lat="49.82174" lon="6.34873">
        <ele>269</ele>
        <time>2018-04-20T10:47:59Z</time>
      </trkpt>
      <trkpt lat="49.82164" lon="6.34888">
        <ele>269</ele>
        <time>2018-04-20T10:48:09Z</time>
      </trkpt>
      <trkpt lat="49.82156" lon="6.34899">
        <ele>269</ele>
        <time>2018-04-20T10:48:19Z</time>
      </trkpt>
      <trkpt lat="49.82148" lon="6.34909">
        <ele>269</ele>
        <time>2018-04-20T10:48:30Z</time>
      </trkpt>
      <trkpt lat="49.82133" lon="6.34922">
        <ele>270</ele>
        <time>2018-04-20T10:48:40Z</time>
      </trkpt>
      <trkpt lat="49.82119" lon="6.34927">
        <ele>270</ele>
        <time>2018-04-20T10:48:50Z</time>
      </trkpt>
      <trkpt lat="49.82105" lon="6.34932">
        <ele>269</ele>
        <time>2018-04-20T10:49:01Z</time>
      </trkpt>
      <trkpt lat="49.82093" lon="6.34935">
        <ele>269</ele>
        <time>2018-04-20T10:49:11Z</time>
      </trkpt>
      <trkpt lat="49.8208" lon="6.3494">
        <ele>269</ele>
        <time>2018-04-20T10:49:21Z</time>
      </trkpt>
      <trkpt lat="49.82068" lon="6.34936">
        <ele>269</ele>
        <time>2018-04-20T10:49:32Z</time>
      </trkpt>
      <trkpt lat="49.82057" lon="6.34928">
        <ele>269</ele>
        <time>2018-04-20T10:49:43Z</time>
      </trkpt>
      <trkpt lat="49.82048" lon="6.34917">
        <ele>269</ele>
        <time>2018-04-20T10:49:53Z</time>
      </trkpt>
      <trkpt lat="49.8204" lon="6.34903">
        <ele>269</ele>
        <time>2018-04-20T10:50:04Z</time>
      </trkpt>
      <trkpt lat="49.82033" lon="6.34888">
        <ele>269</ele>
        <time>2018-04-20T10:50:15Z</time>
      </trkpt>
      <trkpt lat="49.82027" lon="6.34874">
        <ele>269</ele>
        <time>2018-04-20T10:50:26Z</time>
      </trkpt>
      <trkpt lat="49.82023" lon="6.34862">
        <ele>268</ele>
        <time>2018-04-20T10:50:36Z</time>
      </trkpt>
      <trkpt lat="49.82013" lon="6.34848">
        <ele>269</ele>
        <time>2018-04-20T10:50:47Z</time>
      </trkpt>
      <trkpt lat="49.82005" lon="6.34836">
        <ele>269</ele>
        <time>2018-04-20T10:50:57Z</time>
      </trkpt>
      <trkpt lat="49.81995" lon="6.34826">
        <ele>269</ele>
        <time>2018-04-20T10:51:07Z</time>
      </trkpt>
      <trkpt lat="49.81987" lon="6.34814">
        <ele>268</ele>
        <time>2018-04-20T10:51:17Z</time>
      </trkpt>
      <trkpt lat="49.81979" lon="6.34802">
        <ele>269</ele>
        <time>2018-04-20T10:51:28Z</time>
      </trkpt>
      <trkpt lat="49.81972" lon="6.34792">
        <ele>269</ele>
        <time>2018-04-20T10:51:38Z</time>
      </trkpt>
      <trkpt lat="49.8197" lon="6.34785">
        <ele>269</ele>
        <time>2018-04-20T10:51:48Z</time>
      </trkpt>
      <trkpt lat="49.8197" lon="6.34788">
        <ele>269</ele>
        <time>2018-04-20T10:51:58Z</time>
      </trkpt>
      <trkpt lat="49.81971" lon="6.34786">
        <ele>269</ele>
        <time>2018-04-20T10:52:09Z</time>
      </trkpt>
      <trkpt lat="49.81971" lon="6.3479">
        <ele>269</ele>
        <time>2018-04-20T10:52:21Z</time>
      </trkpt>
      <trkpt lat="49.81971" lon="6.34789">
        <ele>269</ele>
        <time>2018-04-20T10:52:31Z</time>
      </trkpt>
      <trkpt lat="49.8197" lon="6.34788">
        <ele>269</ele>
        <time>2018-04-20T10:52:41Z</time>
      </trkpt>
      <trkpt lat="49.8197" lon="6.34788">
        <ele>269</ele>
        <time>2018-04-20T10:52:52Z</time>
      </trkpt>
      <trkpt lat="49.81969" lon="6.34786">
        <ele>269</ele>
        <time>2018-04-20T10:53:03Z</time>
      </trkpt>
      <trkpt lat="49.81968" lon="6.34785">
        <ele>269</ele>
        <time>2018-04-20T10:53:13Z</time>
      </trkpt>
      <trkpt lat="49.81965" lon="6.34781">
        <ele>269</ele>
        <time>2018-04-20T10:53:24Z</time>
      </trkpt>
      <trkpt lat="49.81963" lon="6.3478">
        <ele>269</ele>
        <time>2018-04-20T10:53:34Z</time>
      </trkpt>
      <trkpt lat="49.8196" lon="6.34778">
        <ele>269</ele>
        <time>2018-04-20T10:53:44Z</time>
      </trkpt>
      <trkpt lat="49.81959" lon="6.34779">
        <ele>269</ele>
        <time>2018-04-20T10:53:54Z</time>
      </trkpt>
      <trkpt lat="49.81958" lon="6.34782">
        <ele>269</ele>
        <time>2018-04-20T10:54:04Z</time>
      </trkpt>
      <trkpt lat="49.8196" lon="6.34783">
        <ele>269</ele>
        <time>2018-04-20T10:54:15Z</time>
      </trkpt>
      <trkpt lat="49.81963" lon="6.34781">
        <ele>269</ele>
        <time>2018-04-20T10:54:25Z</time>
      </trkpt>
      <trkpt lat="49.81964" lon="6.34782">
        <ele>270</ele>
        <time>2018-04-20T10:54:36Z</time>
      </trkpt>
      <trkpt lat="49.81929" lon="6.34676">
        <ele>269</ele>
        <time>2018-04-20T10:54:46Z</time>
      </trkpt>
      <trkpt lat="49.8192" lon="6.34667">
        <ele>270</ele>
        <time>2018-04-20T10:54:56Z</time>
      </trkpt>
      <trkpt lat="49.81908" lon="6.34659">
        <ele>270</ele>
        <time>2018-04-20T10:55:06Z</time>
      </trkpt>
      <trkpt lat="49.81897" lon="6.34659">
        <ele>269</ele>
        <time>2018-04-20T10:55:16Z</time>
      </trkpt>
      <trkpt lat="49.81886" lon="6.34659">
        <ele>269</ele>
        <time>2018-04-20T10:55:26Z</time>
      </trkpt>
      <trkpt lat="49.81874" lon="6.34659">
        <ele>269</ele>
        <time>2018-04-20T10:55:37Z</time>
      </trkpt>
      <trkpt lat="49.81863" lon="6.34658">
        <ele>268</ele>
        <time>2018-04-20T10:55:47Z</time>
      </trkpt>
      <trkpt lat="49.8185" lon="6.34655">
        <ele>268</ele>
        <time>2018-04-20T10:55:58Z</time>
      </trkpt>
      <trkpt lat="49.81838" lon="6.34651">
        <ele>268</ele>
        <time>2018-04-20T10:56:09Z</time>
      </trkpt>
      <trkpt lat="49.81829" lon="6.34642">
        <ele>268</ele>
        <time>2018-04-20T10:56:20Z</time>
      </trkpt>
      <trkpt lat="49.8182" lon="6.34634">
        <ele>268</ele>
        <time>2018-04-20T10:56:30Z</time>
      </trkpt>
      <trkpt lat="49.81813" lon="6.34624">
        <ele>268</ele>
        <time>2018-04-20T10:56:41Z</time>
      </trkpt>
      <trkpt lat="49.81806" lon="6.34612">
        <ele>268</ele>
        <time>2018-04-20T10:56:52Z</time>
      </trkpt>
      <trkpt lat="49.818" lon="6.34604">
        <ele>267</ele>
        <time>2018-04-20T10:57:02Z</time>
      </trkpt>
      <trkpt lat="49.81792" lon="6.3459">
        <ele>268</ele>
        <time>2018-04-20T10:57:13Z</time>
      </trkpt>
      <trkpt lat="49.81784" lon="6.34576">
        <ele>268</ele>
        <time>2018-04-20T10:57:24Z</time>
      </trkpt>
      <trkpt lat="49.81775" lon="6.34565">
        <ele>268</ele>
        <time>2018-04-20T10:57:35Z</time>
      </trkpt>
      <trkpt lat="49.81765" lon="6.34554">
        <ele>268</ele>
        <time>2018-04-20T10:57:45Z</time>
      </trkpt>
      <trkpt lat="49.81755" lon="6.34538">
        <ele>268</ele>
        <time>2018-04-20T10:57:56Z</time>
      </trkpt>
      <trkpt lat="49.81746" lon="6.34526">
        <ele>268</ele>
        <time>2018-04-20T10:58:06Z</time>
      </trkpt>
      <trkpt lat="49.81739" lon="6.34512">
        <ele>268</ele>
        <time>2018-04-20T10:58:17Z</time>
      </trkpt>
      <trkpt lat="49.81731" lon="6.34499">
        <ele>268</ele>
        <time>2018-04-20T10:58:28Z</time>
      </trkpt>
      <trkpt lat="49.81722" lon="6.34487">
        <ele>268</ele>
        <time>2018-04-20T10:58:38Z</time>
      </trkpt>
      <trkpt lat="49.81718" lon="6.34481">
        <ele>268</ele>
        <time>2018-04-20T10:58:48Z</time>
      </trkpt>
      <trkpt lat="49.81714" lon="6.34476">
        <ele>268</ele>
        <time>2018-04-20T10:58:58Z</time>
      </trkpt>
      <trkpt lat="49.81705" lon="6.34464">
        <ele>268</ele>
        <time>2018-04-20T10:59:09Z</time>
      </trkpt>
      <trkpt lat="49.81696" lon="6.34455">
        <ele>268</ele>
        <time>2018-04-20T10:59:19Z</time>
      </trkpt>
      <trkpt lat="49.81685" lon="6.34445">
        <ele>267</ele>
        <time>2018-04-20T10:59:30Z</time>
      </trkpt>
      <trkpt lat="49.81674" lon="6.34435">
        <ele>267</ele>
        <time>2018-04-20T10:59:41Z</time>
      </trkpt>
      <trkpt lat="49.81665" lon="6.34427">
        <ele>266</ele>
        <time>2018-04-20T10:59:51Z</time>
      </trkpt>
      <trkpt lat="49.81655" lon="6.34418">
        <ele>266</ele>
        <time>2018-04-20T11:00:02Z</time>
      </trkpt>
      <trkpt lat="49.81646" lon="6.34409">
        <ele>266</ele>
        <time>2018-04-20T11:00:12Z</time>
      </trkpt>
      <trkpt lat="49.81641" lon="6.34404">
        <ele>266</ele>
        <time>2018-04-20T11:00:23Z</time>
      </trkpt>
      <trkpt lat="49.81632" lon="6.34398">
        <ele>266</ele>
        <time>2018-04-20T11:00:33Z</time>
      </trkpt>
      <trkpt lat="49.8162" lon="6.34389">
        <ele>266</ele>
        <time>2018-04-20T11:00:44Z</time>
      </trkpt>
      <trkpt lat="49.81609" lon="6.34381">
        <ele>265</ele>
        <time>2018-04-20T11:00:55Z</time>
      </trkpt>
      <trkpt lat="49.81596" lon="6.34371">
        <ele>266</ele>
        <time>2018-04-20T11:01:06Z</time>
      </trkpt>
      <trkpt lat="49.81585" lon="6.34364">
        <ele>266</ele>
        <time>2018-04-20T11:01:16Z</time>
      </trkpt>
      <trkpt lat="49.81573" lon="6.34356">
        <ele>265</ele>
        <time>2018-04-20T11:01:27Z</time>
      </trkpt>
      <trkpt lat="49.81562" lon="6.34349">
        <ele>266</ele>
        <time>2018-04-20T11:01:37Z</time>
      </trkpt>
      <trkpt lat="49.81553" lon="6.34342">
        <ele>266</ele>
        <time>2018-04-20T11:01:48Z</time>
      </trkpt>
      <trkpt lat="49.81546" lon="6.34338">
        <ele>264</ele>
        <time>2018-04-20T11:01:58Z</time>
      </trkpt>
      <trkpt lat="49.81536" lon="6.34331">
        <ele>265</ele>
        <time>2018-04-20T11:02:09Z</time>
      </trkpt>
      <trkpt lat="49.81524" lon="6.34324">
        <ele>264</ele>
        <time>2018-04-20T11:02:20Z</time>
      </trkpt>
      <trkpt lat="49.81513" lon="6.34313">
        <ele>264</ele>
        <time>2018-04-20T11:02:31Z</time>
      </trkpt>
      <trkpt lat="49.81503" lon="6.34306">
        <ele>265</ele>
        <time>2018-04-20T11:02:41Z</time>
      </trkpt>
      <trkpt lat="49.81494" lon="6.34298">
        <ele>264</ele>
        <time>2018-04-20T11:02:51Z</time>
      </trkpt>
      <trkpt lat="49.81482" lon="6.34288">
        <ele>264</ele>
        <time>2018-04-20T11:03:01Z</time>
      </trkpt>
      <trkpt lat="49.81472" lon="6.3428">
        <ele>264</ele>
        <time>2018-04-20T11:03:12Z</time>
      </trkpt>
      <trkpt lat="49.81465" lon="6.34273">
        <ele>264</ele>
        <time>2018-04-20T11:03:22Z</time>
      </trkpt>
      <trkpt lat="49.81456" lon="6.34266">
        <ele>264</ele>
        <time>2018-04-20T11:03:33Z</time>
      </trkpt>
      <trkpt lat="49.8145" lon="6.34256">
        <ele>263</ele>
        <time>2018-04-20T11:03:43Z</time>
      </trkpt>
      <trkpt lat="49.81443" lon="6.34243">
        <ele>264</ele>
        <time>2018-04-20T11:03:53Z</time>
      </trkpt>
      <trkpt lat="49.8143" lon="6.34233">
        <ele>263</ele>
        <time>2018-04-20T11:04:04Z</time>
      </trkpt>
      <trkpt lat="49.81418" lon="6.34225">
        <ele>264</ele>
        <time>2018-04-20T11:04:15Z</time>
      </trkpt>
      <trkpt lat="49.81408" lon="6.34216">
        <ele>263</ele>
        <time>2018-04-20T11:04:25Z</time>
      </trkpt>
      <trkpt lat="49.81399" lon="6.34208">
        <ele>263</ele>
        <time>2018-04-20T11:04:35Z</time>
      </trkpt>
      <trkpt lat="49.81388" lon="6.34199">
        <ele>263</ele>
        <time>2018-04-20T11:04:46Z</time>
      </trkpt>
      <trkpt lat="49.81377" lon="6.34189">
        <ele>263</ele>
        <time>2018-04-20T11:04:57Z</time>
      </trkpt>
      <trkpt lat="49.81367" lon="6.3418">
        <ele>263</ele>
        <time>2018-04-20T11:05:07Z</time>
      </trkpt>
      <trkpt lat="49.81358" lon="6.34171">
        <ele>263</ele>
        <time>2018-04-20T11:05:17Z</time>
      </trkpt>
      <trkpt lat="49.81348" lon="6.34162">
        <ele>263</ele>
        <time>2018-04-20T11:05:27Z</time>
      </trkpt>
      <trkpt lat="49.81339" lon="6.34151">
        <ele>263</ele>
        <time>2018-04-20T11:05:38Z</time>
      </trkpt>
      <trkpt lat="49.81331" lon="6.34141">
        <ele>263</ele>
        <time>2018-04-20T11:05:48Z</time>
      </trkpt>
      <trkpt lat="49.81326" lon="6.34138">
        <ele>263</ele>
        <time>2018-04-20T11:05:59Z</time>
      </trkpt>
      <trkpt lat="49.81317" lon="6.34127">
        <ele>262</ele>
        <time>2018-04-20T11:06:09Z</time>
      </trkpt>
      <trkpt lat="49.81306" lon="6.34119">
        <ele>263</ele>
        <time>2018-04-20T11:06:20Z</time>
      </trkpt>
      <trkpt lat="49.81297" lon="6.3411">
        <ele>263</ele>
        <time>2018-04-20T11:06:31Z</time>
      </trkpt>
      <trkpt lat="49.81286" lon="6.34102">
        <ele>262</ele>
        <time>2018-04-20T11:06:42Z</time>
      </trkpt>
      <trkpt lat="49.81277" lon="6.34094">
        <ele>262</ele>
        <time>2018-04-20T11:06:52Z</time>
      </trkpt>
      <trkpt lat="49.81268" lon="6.34085">
        <ele>263</ele>
        <time>2018-04-20T11:07:02Z</time>
      </trkpt>
      <trkpt lat="49.81258" lon="6.34077">
        <ele>263</ele>
        <time>2018-04-20T11:07:12Z</time>
      </trkpt>
      <trkpt lat="49.81246" lon="6.34068">
        <ele>263</ele>
        <time>2018-04-20T11:07:23Z</time>
      </trkpt>
      <trkpt lat="49.81236" lon="6.3406">
        <ele>262</ele>
        <time>2018-04-20T11:07:33Z</time>
      </trkpt>
      <trkpt lat="49.81225" lon="6.34052">
        <ele>263</ele>
        <time>2018-04-20T11:07:43Z</time>
      </trkpt>
      <trkpt lat="49.81215" lon="6.34044">
        <ele>263</ele>
        <time>2018-04-20T11:07:53Z</time>
      </trkpt>
      <trkpt lat="49.81205" lon="6.34034">
        <ele>263</ele>
        <time>2018-04-20T11:08:04Z</time>
      </trkpt>
      <trkpt lat="49.81197" lon="6.34026">
        <ele>262</ele>
        <time>2018-04-20T11:08:14Z</time>
      </trkpt>
      <trkpt lat="49.81192" lon="6.34014">
        <ele>262</ele>
        <time>2018-04-20T11:08:24Z</time>
      </trkpt>
      <trkpt lat="49.81185" lon="6.34014">
        <ele>262</ele>
        <time>2018-04-20T11:08:37Z</time>
      </trkpt>
      <trkpt lat="49.81182" lon="6.33999">
        <ele>263</ele>
        <time>2018-04-20T11:08:48Z</time>
      </trkpt>
      <trkpt lat="49.81181" lon="6.33994">
        <ele>262</ele>
        <time>2018-04-20T11:08:59Z</time>
      </trkpt>
      <trkpt lat="49.81182" lon="6.33998">
        <ele>262</ele>
        <time>2018-04-20T11:09:09Z</time>
      </trkpt>
      <trkpt lat="49.81183" lon="6.34003">
        <ele>262</ele>
        <time>2018-04-20T11:09:20Z</time>
      </trkpt>
      <trkpt lat="49.81182" lon="6.33997">
        <ele>262</ele>
        <time>2018-04-20T11:09:30Z</time>
      </trkpt>
      <trkpt lat="49.81182" lon="6.33983">
        <ele>262</ele>
        <time>2018-04-20T11:09:41Z</time>
      </trkpt>
      <trkpt lat="49.81178" lon="6.33963">
        <ele>262</ele>
        <time>2018-04-20T11:09:52Z</time>
      </trkpt>
      <trkpt lat="49.81173" lon="6.33946">
        <ele>263</ele>
        <time>2018-04-20T11:10:03Z</time>
      </trkpt>
      <trkpt lat="49.8117" lon="6.33927">
        <ele>262</ele>
        <time>2018-04-20T11:10:14Z</time>
      </trkpt>
      <trkpt lat="49.81166" lon="6.33911">
        <ele>263</ele>
        <time>2018-04-20T11:10:24Z</time>
      </trkpt>
      <trkpt lat="49.81163" lon="6.33894">
        <ele>262</ele>
        <time>2018-04-20T11:10:34Z</time>
      </trkpt>
      <trkpt lat="49.81158" lon="6.33877">
        <ele>261</ele>
        <time>2018-04-20T11:10:45Z</time>
      </trkpt>
      <trkpt lat="49.81155" lon="6.33862">
        <ele>262</ele>
        <time>2018-04-20T11:10:55Z</time>
      </trkpt>
      <trkpt lat="49.81151" lon="6.33846">
        <ele>261</ele>
        <time>2018-04-20T11:11:06Z</time>
      </trkpt>
      <trkpt lat="49.81147" lon="6.33828">
        <ele>261</ele>
        <time>2018-04-20T11:11:16Z</time>
      </trkpt>
      <trkpt lat="49.81142" lon="6.33809">
        <ele>260</ele>
        <time>2018-04-20T11:11:27Z</time>
      </trkpt>
      <trkpt lat="49.81137" lon="6.33791">
        <ele>259</ele>
        <time>2018-04-20T11:11:38Z</time>
      </trkpt>
      <trkpt lat="49.81133" lon="6.33775">
        <ele>259</ele>
        <time>2018-04-20T11:11:48Z</time>
      </trkpt>
      <trkpt lat="49.81129" lon="6.33759">
        <ele>259</ele>
        <time>2018-04-20T11:11:58Z</time>
      </trkpt>
      <trkpt lat="49.81125" lon="6.33743">
        <ele>258</ele>
        <time>2018-04-20T11:12:09Z</time>
      </trkpt>
      <trkpt lat="49.81123" lon="6.3373">
        <ele>258</ele>
        <time>2018-04-20T11:12:19Z</time>
      </trkpt>
      <trkpt lat="49.81119" lon="6.33714">
        <ele>258</ele>
        <time>2018-04-20T11:12:30Z</time>
      </trkpt>
      <trkpt lat="49.81115" lon="6.33697">
        <ele>257</ele>
        <time>2018-04-20T11:12:40Z</time>
      </trkpt>
      <trkpt lat="49.81112" lon="6.33681">
        <ele>257</ele>
        <time>2018-04-20T11:12:50Z</time>
      </trkpt>
      <trkpt lat="49.81111" lon="6.33662">
        <ele>257</ele>
        <time>2018-04-20T11:13:01Z</time>
      </trkpt>
      <trkpt lat="49.8111" lon="6.33645">
        <ele>256</ele>
        <time>2018-04-20T11:13:12Z</time>
      </trkpt>
      <trkpt lat="49.8111" lon="6.33629">
        <ele>257</ele>
        <time>2018-04-20T11:13:22Z</time>
      </trkpt>
      <trkpt lat="49.81108" lon="6.33611">
        <ele>256</ele>
        <time>2018-04-20T11:13:33Z</time>
      </trkpt>
      <trkpt lat="49.8111" lon="6.33594">
        <ele>256</ele>
        <time>2018-04-20T11:13:43Z</time>
      </trkpt>
      <trkpt lat="49.81107" lon="6.33577">
        <ele>256</ele>
        <time>2018-04-20T11:13:53Z</time>
      </trkpt>
      <trkpt lat="49.81102" lon="6.33562">
        <ele>256</ele>
        <time>2018-04-20T11:14:03Z</time>
      </trkpt>
      <trkpt lat="49.81095" lon="6.33546">
        <ele>255</ele>
        <time>2018-04-20T11:14:14Z</time>
      </trkpt>
      <trkpt lat="49.81089" lon="6.33533">
        <ele>255</ele>
        <time>2018-04-20T11:14:24Z</time>
      </trkpt>
      <trkpt lat="49.81083" lon="6.33519">
        <ele>255</ele>
        <time>2018-04-20T11:14:34Z</time>
      </trkpt>
      <trkpt lat="49.81075" lon="6.33502">
        <ele>255</ele>
        <time>2018-04-20T11:14:45Z</time>
      </trkpt>
      <trkpt lat="49.81069" lon="6.33488">
        <ele>255</ele>
        <time>2018-04-20T11:14:56Z</time>
      </trkpt>
      <trkpt lat="49.81065" lon="6.33476">
        <ele>255</ele>
        <time>2018-04-20T11:15:06Z</time>
      </trkpt>
      <trkpt lat="49.81057" lon="6.33459">
        <ele>255</ele>
        <time>2018-04-20T11:15:17Z</time>
      </trkpt>
      <trkpt lat="49.81052" lon="6.33444">
        <ele>254</ele>
        <time>2018-04-20T11:15:27Z</time>
      </trkpt>
      <trkpt lat="49.81046" lon="6.33427">
        <ele>254</ele>
        <time>2018-04-20T11:15:38Z</time>
      </trkpt>
      <trkpt lat="49.81041" lon="6.3341">
        <ele>254</ele>
        <time>2018-04-20T11:15:49Z</time>
      </trkpt>
      <trkpt lat="49.81038" lon="6.33394">
        <ele>254</ele>
        <time>2018-04-20T11:15:59Z</time>
      </trkpt>
      <trkpt lat="49.81034" lon="6.33376">
        <ele>253</ele>
        <time>2018-04-20T11:16:10Z</time>
      </trkpt>
      <trkpt lat="49.81031" lon="6.33358">
        <ele>253</ele>
        <time>2018-04-20T11:16:21Z</time>
      </trkpt>
      <trkpt lat="49.81028" lon="6.33341">
        <ele>252</ele>
        <time>2018-04-20T11:16:31Z</time>
      </trkpt>
      <trkpt lat="49.81023" lon="6.33322">
        <ele>253</ele>
        <time>2018-04-20T11:16:41Z</time>
      </trkpt>
      <trkpt lat="49.81021" lon="6.33306">
        <ele>253</ele>
        <time>2018-04-20T11:16:51Z</time>
      </trkpt>
      <trkpt lat="49.81019" lon="6.3329">
        <ele>252</ele>
        <time>2018-04-20T11:17:01Z</time>
      </trkpt>
      <trkpt lat="49.81017" lon="6.33274">
        <ele>252</ele>
        <time>2018-04-20T11:17:11Z</time>
      </trkpt>
      <trkpt lat="49.81015" lon="6.33259">
        <ele>252</ele>
        <time>2018-04-20T11:17:21Z</time>
      </trkpt>
      <trkpt lat="49.81015" lon="6.33245">
        <ele>251</ele>
        <time>2018-04-20T11:17:32Z</time>
      </trkpt>
      <trkpt lat="49.81019" lon="6.33228">
        <ele>251</ele>
        <time>2018-04-20T11:17:42Z</time>
      </trkpt>
      <trkpt lat="49.81028" lon="6.33213">
        <ele>251</ele>
        <time>2018-04-20T11:17:53Z</time>
      </trkpt>
      <trkpt lat="49.81036" lon="6.33201">
        <ele>250</ele>
        <time>2018-04-20T11:18:04Z</time>
      </trkpt>
      <trkpt lat="49.81043" lon="6.33189">
        <ele>250</ele>
        <time>2018-04-20T11:18:15Z</time>
      </trkpt>
      <trkpt lat="49.81051" lon="6.33176">
        <ele>249</ele>
        <time>2018-04-20T11:18:26Z</time>
      </trkpt>
      <trkpt lat="49.81059" lon="6.33165">
        <ele>248</ele>
        <time>2018-04-20T11:18:36Z</time>
      </trkpt>
      <trkpt lat="49.81067" lon="6.33152">
        <ele>248</ele>
        <time>2018-04-20T11:18:46Z</time>
      </trkpt>
      <trkpt lat="49.8107" lon="6.33136">
        <ele>248</ele>
        <time>2018-04-20T11:18:56Z</time>
      </trkpt>
      <trkpt lat="49.81072" lon="6.3312">
        <ele>247</ele>
        <time>2018-04-20T11:19:07Z</time>
      </trkpt>
      <trkpt lat="49.81073" lon="6.33109">
        <ele>246</ele>
        <time>2018-04-20T11:19:18Z</time>
      </trkpt>
      <trkpt lat="49.81069" lon="6.33102">
        <ele>245</ele>
        <time>2018-04-20T11:19:28Z</time>
      </trkpt>
      <trkpt lat="49.81061" lon="6.331">
        <ele>244</ele>
        <time>2018-04-20T11:19:39Z</time>
      </trkpt>
      <trkpt lat="49.81053" lon="6.33101">
        <ele>243</ele>
        <time>2018-04-20T11:19:50Z</time>
      </trkpt>
      <trkpt lat="49.81053" lon="6.33094">
        <ele>243</ele>
        <time>2018-04-20T11:20:00Z</time>
      </trkpt>
      <trkpt lat="49.81051" lon="6.33087">
        <ele>243</ele>
        <time>2018-04-20T11:20:11Z</time>
      </trkpt>
      <trkpt lat="49.81044" lon="6.33083">
        <ele>242</ele>
        <time>2018-04-20T11:20:22Z</time>
      </trkpt>
      <trkpt lat="49.81039" lon="6.33082">
        <ele>241</ele>
        <time>2018-04-20T11:20:33Z</time>
      </trkpt>
      <trkpt lat="49.81033" lon="6.33077">
        <ele>241</ele>
        <time>2018-04-20T11:20:43Z</time>
      </trkpt>
      <trkpt lat="49.81026" lon="6.33074">
        <ele>240</ele>
        <time>2018-04-20T11:20:53Z</time>
      </trkpt>
      <trkpt lat="49.8102" lon="6.33072">
        <ele>240</ele>
        <time>2018-04-20T11:21:03Z</time>
      </trkpt>
      <trkpt lat="49.81015" lon="6.33072">
        <ele>240</ele>
        <time>2018-04-20T11:21:13Z</time>
      </trkpt>
      <trkpt lat="49.81014" lon="6.33074">
        <ele>239</ele>
        <time>2018-04-20T11:21:23Z</time>
      </trkpt>
      <trkpt lat="49.81005" lon="6.33074">
        <ele>239</ele>
        <time>2018-04-20T11:21:34Z</time>
      </trkpt>
      <trkpt lat="49.80997" lon="6.33074">
        <ele>237</ele>
        <time>2018-04-20T11:21:45Z</time>
      </trkpt>
      <trkpt lat="49.80992" lon="6.33077">
        <ele>237</ele>
        <time>2018-04-20T11:21:55Z</time>
      </trkpt>
      <trkpt lat="49.80986" lon="6.33081">
        <ele>236</ele>
        <time>2018-04-20T11:22:06Z</time>
      </trkpt>
      <trkpt lat="49.8098" lon="6.33085">
        <ele>234</ele>
        <time>2018-04-20T11:22:16Z</time>
      </trkpt>
      <trkpt lat="49.80978" lon="6.33079">
        <ele>233</ele>
        <time>2018-04-20T11:22:27Z</time>
      </trkpt>
      <trkpt lat="49.80976" lon="6.33067">
        <ele>234</ele>
        <time>2018-04-20T11:22:38Z</time>
      </trkpt>
      <trkpt lat="49.8097" lon="6.33061">
        <ele>232</ele>
        <time>2018-04-20T11:22:48Z</time>
      </trkpt>
      <trkpt lat="49.80963" lon="6.33053">
        <ele>230</ele>
        <time>2018-04-20T11:22:59Z</time>
      </trkpt>
      <trkpt lat="49.80959" lon="6.33046">
        <ele>228</ele>
        <time>2018-04-20T11:23:10Z</time>
      </trkpt>
      <trkpt lat="49.80959" lon="6.33038">
        <ele>226</ele>
        <time>2018-04-20T11:23:21Z</time>
      </trkpt>
      <trkpt lat="49.80958" lon="6.33034">
        <ele>225</ele>
        <time>2018-04-20T11:23:31Z</time>
      </trkpt>
      <trkpt lat="49.8096" lon="6.33027">
        <ele>225</ele>
        <time>2018-04-20T11:23:42Z</time>
      </trkpt>
      <trkpt lat="49.80965" lon="6.3302">
        <ele>225</ele>
        <time>2018-04-20T11:23:52Z</time>
      </trkpt>
      <trkpt lat="49.8097" lon="6.33015">
        <ele>223</ele>
        <time>2018-04-20T11:24:02Z</time>
      </trkpt>
      <trkpt lat="49.80976" lon="6.33011">
        <ele>222</ele>
        <time>2018-04-20T11:24:12Z</time>
      </trkpt>
      <trkpt lat="49.80981" lon="6.33006">
        <ele>221</ele>
        <time>2018-04-20T11:24:23Z</time>
      </trkpt>
      <trkpt lat="49.8099" lon="6.33006">
        <ele>220</ele>
        <time>2018-04-20T11:24:33Z</time>
      </trkpt>
      <trkpt lat="49.80994" lon="6.33005">
        <ele>219</ele>
        <time>2018-04-20T11:24:44Z</time>
      </trkpt>
      <trkpt lat="49.80992" lon="6.33001">
        <ele>218</ele>
        <time>2018-04-20T11:24:55Z</time>
      </trkpt>
      <trkpt lat="49.80993" lon="6.32992">
        <ele>217</ele>
        <time>2018-04-20T11:25:05Z</time>
      </trkpt>
      <trkpt lat="49.80989" lon="6.32985">
        <ele>216</ele>
        <time>2018-04-20T11:25:16Z</time>
      </trkpt>
      <trkpt lat="49.80988" lon="6.32983">
        <ele>216</ele>
        <time>2018-04-20T11:25:26Z</time>
      </trkpt>
      <trkpt lat="49.80989" lon="6.32982">
        <ele>215</ele>
        <time>2018-04-20T11:25:37Z</time>
      </trkpt>
      <trkpt lat="49.80997" lon="6.32988">
        <ele>215</ele>
        <time>2018-04-20T11:25:47Z</time>
      </trkpt>
      <trkpt lat="49.81002" lon="6.32987">
        <ele>213</ele>
        <time>2018-04-20T11:25:58Z</time>
      </trkpt>
      <trkpt lat="49.81008" lon="6.32985">
        <ele>213</ele>
        <time>2018-04-20T11:26:08Z</time>
      </trkpt>
      <trkpt lat="49.8101" lon="6.32979">
        <ele>210</ele>
        <time>2018-04-20T11:26:19Z</time>
      </trkpt>
      <trkpt lat="49.81012" lon="6.32977">
        <ele>207</ele>
        <time>2018-04-20T11:26:29Z</time>
      </trkpt>
      <trkpt lat="49.8102" lon="6.32975">
        <ele>205</ele>
        <time>2018-04-20T11:26:40Z</time>
      </trkpt>
      <trkpt lat="49.81014" lon="6.32969">
        <ele>205</ele>
        <time>2018-04-20T11:26:50Z</time>
      </trkpt>
      <trkpt lat="49.81011" lon="6.32967">
        <ele>204</ele>
        <time>2018-04-20T11:27:00Z</time>
      </trkpt>
      <trkpt lat="49.81017" lon="6.32972">
        <ele>204</ele>
        <time>2018-04-20T11:27:11Z</time>
      </trkpt>
      <trkpt lat="49.81027" lon="6.32971">
        <ele>205</ele>
        <time>2018-04-20T11:27:21Z</time>
      </trkpt>
      <trkpt lat="49.81025" lon="6.32965">
        <ele>204</ele>
        <time>2018-04-20T11:27:31Z</time>
      </trkpt>
      <trkpt lat="49.81003" lon="6.32961">
        <ele>204</ele>
        <time>2018-04-20T11:27:42Z</time>
      </trkpt>
      <trkpt lat="49.8101" lon="6.32959">
        <ele>205</ele>
        <time>2018-04-20T11:27:53Z</time>
      </trkpt>
      <trkpt lat="49.81014" lon="6.32967">
        <ele>204</ele>
        <time>2018-04-20T11:28:03Z</time>
      </trkpt>
      <trkpt lat="49.81028" lon="6.32981">
        <ele>205</ele>
        <time>2018-04-20T11:28:14Z</time>
      </trkpt>
      <trkpt lat="49.81046" lon="6.32982">
        <ele>205</ele>
        <time>2018-04-20T11:28:24Z</time>
      </trkpt>
      <trkpt lat="49.8105" lon="6.32986">
        <ele>206</ele>
        <time>2018-04-20T11:28:35Z</time>
      </trkpt>
      <trkpt lat="49.81046" lon="6.32987">
        <ele>205</ele>
        <time>2018-04-20T11:28:50Z</time>
      </trkpt>
      <trkpt lat="49.81032" lon="6.32992">
        <ele>205</ele>
        <time>2018-04-20T11:29:00Z</time>
      </trkpt>
      <trkpt lat="49.81043" lon="6.32991">
        <ele>207</ele>
        <time>2018-04-20T11:29:11Z</time>
      </trkpt>
      <trkpt lat="49.81051" lon="6.32991">
        <ele>209</ele>
        <time>2018-04-20T11:29:22Z</time>
      </trkpt>
      <trkpt lat="49.81061" lon="6.33">
        <ele>212</ele>
        <time>2018-04-20T11:29:33Z</time>
      </trkpt>
      <trkpt lat="49.81063" lon="6.33009">
        <ele>212</ele>
        <time>2018-04-20T11:29:43Z</time>
      </trkpt>
      <trkpt lat="49.81072" lon="6.33015">
        <ele>212</ele>
        <time>2018-04-20T11:29:54Z</time>
      </trkpt>
      <trkpt lat="49.81075" lon="6.33018">
        <ele>213</ele>
        <time>2018-04-20T11:30:04Z</time>
      </trkpt>
      <trkpt lat="49.81075" lon="6.33022">
        <ele>213</ele>
        <time>2018-04-20T11:30:14Z</time>
      </trkpt>
      <trkpt lat="49.81077" lon="6.3302">
        <ele>214</ele>
        <time>2018-04-20T11:30:25Z</time>
      </trkpt>
      <trkpt lat="49.81084" lon="6.33024">
        <ele>215</ele>
        <time>2018-04-20T11:30:35Z</time>
      </trkpt>
      <trkpt lat="49.81082" lon="6.33033">
        <ele>216</ele>
        <time>2018-04-20T11:30:46Z</time>
      </trkpt>
      <trkpt lat="49.81084" lon="6.33062">
        <ele>217</ele>
        <time>2018-04-20T11:31:02Z</time>
      </trkpt>
      <trkpt lat="49.81074" lon="6.33052">
        <ele>217</ele>
        <time>2018-04-20T11:31:12Z</time>
      </trkpt>
      <trkpt lat="49.81069" lon="6.33033">
        <ele>216</ele>
        <time>2018-04-20T11:31:22Z</time>
      </trkpt>
      <trkpt lat="49.81062" lon="6.33033">
        <ele>217</ele>
        <time>2018-04-20T11:31:33Z</time>
      </trkpt>
      <trkpt lat="49.8106" lon="6.3304">
        <ele>217</ele>
        <time>2018-04-20T11:31:45Z</time>
      </trkpt>
      <trkpt lat="49.81065" lon="6.33056">
        <ele>217</ele>
        <time>2018-04-20T11:31:56Z</time>
      </trkpt>
      <trkpt lat="49.81069" lon="6.33055">
        <ele>219</ele>
        <time>2018-04-20T11:32:06Z</time>
      </trkpt>
      <trkpt lat="49.81115" lon="6.33127">
        <ele>220</ele>
        <time>2018-04-20T11:32:35Z</time>
      </trkpt>
      <trkpt lat="49.8111" lon="6.3306">
        <ele>221</ele>
        <time>2018-04-20T11:32:45Z</time>
      </trkpt>
      <trkpt lat="49.81103" lon="6.33056">
        <ele>223</ele>
        <time>2018-04-20T11:32:55Z</time>
      </trkpt>
      <trkpt lat="49.81101" lon="6.33049">
        <ele>223</ele>
        <time>2018-04-20T11:33:05Z</time>
      </trkpt>
      <trkpt lat="49.811" lon="6.33041">
        <ele>225</ele>
        <time>2018-04-20T11:33:15Z</time>
      </trkpt>
      <trkpt lat="49.81106" lon="6.33038">
        <ele>225</ele>
        <time>2018-04-20T11:33:26Z</time>
      </trkpt>
      <trkpt lat="49.81106" lon="6.33031">
        <ele>225</ele>
        <time>2018-04-20T11:33:36Z</time>
      </trkpt>
      <trkpt lat="49.81104" lon="6.33029">
        <ele>225</ele>
        <time>2018-04-20T11:33:46Z</time>
      </trkpt>
      <trkpt lat="49.81102" lon="6.33028">
        <ele>226</ele>
        <time>2018-04-20T11:33:56Z</time>
      </trkpt>
      <trkpt lat="49.81104" lon="6.33032">
        <ele>225</ele>
        <time>2018-04-20T11:34:06Z</time>
      </trkpt>
      <trkpt lat="49.81109" lon="6.33038">
        <ele>225</ele>
        <time>2018-04-20T11:34:17Z</time>
      </trkpt>
      <trkpt lat="49.8111" lon="6.33045">
        <ele>225</ele>
        <time>2018-04-20T11:34:28Z</time>
      </trkpt>
      <trkpt lat="49.81105" lon="6.3305">
        <ele>225</ele>
        <time>2018-04-20T11:34:39Z</time>
      </trkpt>
      <trkpt lat="49.81104" lon="6.33055">
        <ele>224</ele>
        <time>2018-04-20T11:34:49Z</time>
      </trkpt>
      <trkpt lat="49.81103" lon="6.3306">
        <ele>224</ele>
        <time>2018-04-20T11:35:00Z</time>
      </trkpt>
      <trkpt lat="49.81104" lon="6.33055">
        <ele>224</ele>
        <time>2018-04-20T11:35:10Z</time>
      </trkpt>
      <trkpt lat="49.81103" lon="6.33049">
        <ele>224</ele>
        <time>2018-04-20T11:35:21Z</time>
      </trkpt>
      <trkpt lat="49.81103" lon="6.33042">
        <ele>224</ele>
        <time>2018-04-20T11:35:32Z</time>
      </trkpt>
      <trkpt lat="49.811" lon="6.33039">
        <ele>224</ele>
        <time>2018-04-20T11:35:43Z</time>
      </trkpt>
      <trkpt lat="49.81095" lon="6.33042">
        <ele>224</ele>
        <time>2018-04-20T11:35:54Z</time>
      </trkpt>
      <trkpt lat="49.81097" lon="6.33043">
        <ele>224</ele>
        <time>2018-04-20T11:36:05Z</time>
      </trkpt>
      <trkpt lat="49.811" lon="6.3304">
        <ele>223</ele>
        <time>2018-04-20T11:36:15Z</time>
      </trkpt>
      <trkpt lat="49.81101" lon="6.33043">
        <ele>222</ele>
        <time>2018-04-20T11:36:26Z</time>
      </trkpt>
      <trkpt lat="49.81102" lon="6.33046">
        <ele>221</ele>
        <time>2018-04-20T11:36:36Z</time>
      </trkpt>
      <trkpt lat="49.81101" lon="6.33046">
        <ele>221</ele>
        <time>2018-04-20T11:36:46Z</time>
      </trkpt>
      <trkpt lat="49.81104" lon="6.33051">
        <ele>221</ele>
        <time>2018-04-20T11:37:04Z</time>
      </trkpt>
      <trkpt lat="49.81114" lon="6.33048">
        <ele>220</ele>
        <time>2018-04-20T11:37:14Z</time>
      </trkpt>
      <trkpt lat="49.81115" lon="6.33034">
        <ele>220</ele>
        <time>2018-04-20T11:37:24Z</time>
      </trkpt>
      <trkpt lat="49.81113" lon="6.33024">
        <ele>219</ele>
        <time>2018-04-20T11:37:34Z</time>
      </trkpt>
      <trkpt lat="49.8111" lon="6.33017">
        <ele>219</ele>
        <time>2018-04-20T11:37:44Z</time>
      </trkpt>
      <trkpt lat="49.8111" lon="6.3301">
        <ele>217</ele>
        <time>2018-04-20T11:37:54Z</time>
      </trkpt>
      <trkpt lat="49.8111" lon="6.33005">
        <ele>217</ele>
        <time>2018-04-20T11:38:04Z</time>
      </trkpt>
      <trkpt lat="49.81108" lon="6.33001">
        <ele>216</ele>
        <time>2018-04-20T11:38:15Z</time>
      </trkpt>
      <trkpt lat="49.81107" lon="6.33003">
        <ele>217</ele>
        <time>2018-04-20T11:38:25Z</time>
      </trkpt>
      <trkpt lat="49.81104" lon="6.33002">
        <ele>217</ele>
        <time>2018-04-20T11:38:35Z</time>
      </trkpt>
      <trkpt lat="49.81097" lon="6.32998">
        <ele>216</ele>
        <time>2018-04-20T11:38:46Z</time>
      </trkpt>
      <trkpt lat="49.81089" lon="6.32997">
        <ele>216</ele>
        <time>2018-04-20T11:38:57Z</time>
      </trkpt>
      <trkpt lat="49.81088" lon="6.32992">
        <ele>216</ele>
        <time>2018-04-20T11:39:07Z</time>
      </trkpt>
      <trkpt lat="49.81084" lon="6.32985">
        <ele>216</ele>
        <time>2018-04-20T11:39:18Z</time>
      </trkpt>
      <trkpt lat="49.81089" lon="6.32985">
        <ele>217</ele>
        <time>2018-04-20T11:39:28Z</time>
      </trkpt>
      <trkpt lat="49.81095" lon="6.3298">
        <ele>217</ele>
        <time>2018-04-20T11:39:39Z</time>
      </trkpt>
      <trkpt lat="49.81106" lon="6.32982">
        <ele>217</ele>
        <time>2018-04-20T11:39:50Z</time>
      </trkpt>
      <trkpt lat="49.81114" lon="6.32992">
        <ele>216</ele>
        <time>2018-04-20T11:40:00Z</time>
      </trkpt>
      <trkpt lat="49.81117" lon="6.32996">
        <ele>215</ele>
        <time>2018-04-20T11:40:10Z</time>
      </trkpt>
      <trkpt lat="49.81115" lon="6.33002">
        <ele>214</ele>
        <time>2018-04-20T11:40:21Z</time>
      </trkpt>
      <trkpt lat="49.8111" lon="6.3301">
        <ele>216</ele>
        <time>2018-04-20T11:40:31Z</time>
      </trkpt>
      <trkpt lat="49.81109" lon="6.33016">
        <ele>218</ele>
        <time>2018-04-20T11:40:42Z</time>
      </trkpt>
      <trkpt lat="49.81113" lon="6.33017">
        <ele>219</ele>
        <time>2018-04-20T11:40:52Z</time>
      </trkpt>
      <trkpt lat="49.81113" lon="6.33015">
        <ele>219</ele>
        <time>2018-04-20T11:41:03Z</time>
      </trkpt>
      <trkpt lat="49.81112" lon="6.33008">
        <ele>220</ele>
        <time>2018-04-20T11:41:13Z</time>
      </trkpt>
      <trkpt lat="49.8111" lon="6.32999">
        <ele>219</ele>
        <time>2018-04-20T11:41:24Z</time>
      </trkpt>
      <trkpt lat="49.81111" lon="6.32987">
        <ele>220</ele>
        <time>2018-04-20T11:41:35Z</time>
      </trkpt>
      <trkpt lat="49.81112" lon="6.32981">
        <ele>218</ele>
        <time>2018-04-20T11:41:45Z</time>
      </trkpt>
      <trkpt lat="49.81113" lon="6.32986">
        <ele>215</ele>
        <time>2018-04-20T11:41:56Z</time>
      </trkpt>
      <trkpt lat="49.81109" lon="6.32989">
        <ele>214</ele>
        <time>2018-04-20T11:42:06Z</time>
      </trkpt>
      <trkpt lat="49.8111" lon="6.32999">
        <ele>214</ele>
        <time>2018-04-20T11:42:16Z</time>
      </trkpt>
      <trkpt lat="49.81119" lon="6.33">
        <ele>213</ele>
        <time>2018-04-20T11:42:27Z</time>
      </trkpt>
      <trkpt lat="49.81126" lon="6.32993">
        <ele>212</ele>
        <time>2018-04-20T11:42:37Z</time>
      </trkpt>
      <trkpt lat="49.81134" lon="6.32986">
        <ele>212</ele>
        <time>2018-04-20T11:42:48Z</time>
      </trkpt>
      <trkpt lat="49.81142" lon="6.32983">
        <ele>213</ele>
        <time>2018-04-20T11:42:59Z</time>
      </trkpt>
      <trkpt lat="49.81148" lon="6.32981">
        <ele>214</ele>
        <time>2018-04-20T11:43:09Z</time>
      </trkpt>
      <trkpt lat="49.81155" lon="6.32977">
        <ele>214</ele>
        <time>2018-04-20T11:43:20Z</time>
      </trkpt>
      <trkpt lat="49.81161" lon="6.32979">
        <ele>213</ele>
        <time>2018-04-20T11:43:30Z</time>
      </trkpt>
      <trkpt lat="49.81168" lon="6.32983">
        <ele>212</ele>
        <time>2018-04-20T11:43:40Z</time>
      </trkpt>
      <trkpt lat="49.81174" lon="6.32983">
        <ele>212</ele>
        <time>2018-04-20T11:43:51Z</time>
      </trkpt>
      <trkpt lat="49.8118" lon="6.32979">
        <ele>210</ele>
        <time>2018-04-20T11:44:02Z</time>
      </trkpt>
      <trkpt lat="49.81182" lon="6.32971">
        <ele>209</ele>
        <time>2018-04-20T11:44:12Z</time>
      </trkpt>
      <trkpt lat="49.81184" lon="6.3297">
        <ele>210</ele>
        <time>2018-04-20T11:44:23Z</time>
      </trkpt>
      <trkpt lat="49.81189" lon="6.32955">
        <ele>210</ele>
        <time>2018-04-20T11:44:33Z</time>
      </trkpt>
      <trkpt lat="49.81189" lon="6.32947">
        <ele>209</ele>
        <time>2018-04-20T11:44:44Z</time>
      </trkpt>
      <trkpt lat="49.81193" lon="6.32952">
        <ele>210</ele>
        <time>2018-04-20T11:44:54Z</time>
      </trkpt>
      <trkpt lat="49.812" lon="6.32959">
        <ele>212</ele>
        <time>2018-04-20T11:45:05Z</time>
      </trkpt>
      <trkpt lat="49.81208" lon="6.32972">
        <ele>215</ele>
        <time>2018-04-20T11:45:15Z</time>
      </trkpt>
      <trkpt lat="49.81208" lon="6.32988">
        <ele>217</ele>
        <time>2018-04-20T11:45:26Z</time>
      </trkpt>
      <trkpt lat="49.81208" lon="6.33009">
        <ele>217</ele>
        <time>2018-04-20T11:45:36Z</time>
      </trkpt>
      <trkpt lat="49.81217" lon="6.33007">
        <ele>220</ele>
        <time>2018-04-20T11:45:46Z</time>
      </trkpt>
      <trkpt lat="49.81222" lon="6.33002">
        <ele>222</ele>
        <time>2018-04-20T11:45:57Z</time>
      </trkpt>
      <trkpt lat="49.81224" lon="6.33002">
        <ele>224</ele>
        <time>2018-04-20T11:46:07Z</time>
      </trkpt>
      <trkpt lat="49.81227" lon="6.33006">
        <ele>225</ele>
        <time>2018-04-20T11:46:17Z</time>
      </trkpt>
      <trkpt lat="49.81232" lon="6.3301">
        <ele>226</ele>
        <time>2018-04-20T11:46:28Z</time>
      </trkpt>
      <trkpt lat="49.81236" lon="6.3301">
        <ele>227</ele>
        <time>2018-04-20T11:46:38Z</time>
      </trkpt>
      <trkpt lat="49.81241" lon="6.33013">
        <ele>228</ele>
        <time>2018-04-20T11:46:48Z</time>
      </trkpt>
      <trkpt lat="49.81247" lon="6.33017">
        <ele>227</ele>
        <time>2018-04-20T11:46:59Z</time>
      </trkpt>
      <trkpt lat="49.81253" lon="6.33018">
        <ele>226</ele>
        <time>2018-04-20T11:47:10Z</time>
      </trkpt>
      <trkpt lat="49.81257" lon="6.33018">
        <ele>225</ele>
        <time>2018-04-20T11:47:20Z</time>
      </trkpt>
      <trkpt lat="49.81261" lon="6.33021">
        <ele>224</ele>
        <time>2018-04-20T11:47:30Z</time>
      </trkpt>
      <trkpt lat="49.81264" lon="6.3302">
        <ele>225</ele>
        <time>2018-04-20T11:47:41Z</time>
      </trkpt>
      <trkpt lat="49.81264" lon="6.33015">
        <ele>225</ele>
        <time>2018-04-20T11:47:52Z</time>
      </trkpt>
      <trkpt lat="49.81267" lon="6.33014">
        <ele>224</ele>
        <time>2018-04-20T11:48:02Z</time>
      </trkpt>
      <trkpt lat="49.8127" lon="6.3302">
        <ele>224</ele>
        <time>2018-04-20T11:48:13Z</time>
      </trkpt>
      <trkpt lat="49.81275" lon="6.33028">
        <ele>224</ele>
        <time>2018-04-20T11:48:23Z</time>
      </trkpt>
      <trkpt lat="49.8128" lon="6.33029">
        <ele>224</ele>
        <time>2018-04-20T11:48:34Z</time>
      </trkpt>
      <trkpt lat="49.81284" lon="6.33032">
        <ele>223</ele>
        <time>2018-04-20T11:48:44Z</time>
      </trkpt>
      <trkpt lat="49.81288" lon="6.33032">
        <ele>222</ele>
        <time>2018-04-20T11:48:54Z</time>
      </trkpt>
      <trkpt lat="49.81295" lon="6.3304">
        <ele>221</ele>
        <time>2018-04-20T11:49:05Z</time>
      </trkpt>
      <trkpt lat="49.81298" lon="6.33045">
        <ele>221</ele>
        <time>2018-04-20T11:49:16Z</time>
      </trkpt>
      <trkpt lat="49.81304" lon="6.33046">
        <ele>220</ele>
        <time>2018-04-20T11:49:27Z</time>
      </trkpt>
      <trkpt lat="49.81314" lon="6.33047">
        <ele>218</ele>
        <time>2018-04-20T11:49:38Z</time>
      </trkpt>
      <trkpt lat="49.8132" lon="6.33048">
        <ele>218</ele>
        <time>2018-04-20T11:49:48Z</time>
      </trkpt>
      <trkpt lat="49.81327" lon="6.3305">
        <ele>218</ele>
        <time>2018-04-20T11:49:59Z</time>
      </trkpt>
      <trkpt lat="49.81332" lon="6.33048">
        <ele>220</ele>
        <time>2018-04-20T11:50:09Z</time>
      </trkpt>
      <trkpt lat="49.81341" lon="6.33053">
        <ele>222</ele>
        <time>2018-04-20T11:50:19Z</time>
      </trkpt>
      <trkpt lat="49.81347" lon="6.33058">
        <ele>222</ele>
        <time>2018-04-20T11:50:29Z</time>
      </trkpt>
      <trkpt lat="49.81353" lon="6.33057">
        <ele>220</ele>
        <time>2018-04-20T11:50:40Z</time>
      </trkpt>
      <trkpt lat="49.81361" lon="6.33055">
        <ele>220</ele>
        <time>2018-04-20T11:50:51Z</time>
      </trkpt>
      <trkpt lat="49.81366" lon="6.33057">
        <ele>219</ele>
        <time>2018-04-20T11:51:01Z</time>
      </trkpt>
      <trkpt lat="49.81367" lon="6.33053">
        <ele>219</ele>
        <time>2018-04-20T11:51:12Z</time>
      </trkpt>
      <trkpt lat="49.81369" lon="6.33055">
        <ele>219</ele>
        <time>2018-04-20T11:51:23Z</time>
      </trkpt>
      <trkpt lat="49.81373" lon="6.33061">
        <ele>219</ele>
        <time>2018-04-20T11:51:33Z</time>
      </trkpt>
      <trkpt lat="49.81377" lon="6.33068">
        <ele>217</ele>
        <time>2018-04-20T11:51:43Z</time>
      </trkpt>
      <trkpt lat="49.81377" lon="6.33069">
        <ele>217</ele>
        <time>2018-04-20T11:51:54Z</time>
      </trkpt>
      <trkpt lat="49.81379" lon="6.3307">
        <ele>218</ele>
        <time>2018-04-20T11:52:04Z</time>
      </trkpt>
      <trkpt lat="49.81384" lon="6.33075">
        <ele>218</ele>
        <time>2018-04-20T11:52:14Z</time>
      </trkpt>
      <trkpt lat="49.81388" lon="6.33078">
        <ele>219</ele>
        <time>2018-04-20T11:52:25Z</time>
      </trkpt>
      <trkpt lat="49.81395" lon="6.33079">
        <ele>220</ele>
        <time>2018-04-20T11:52:35Z</time>
      </trkpt>
      <trkpt lat="49.81399" lon="6.33084">
        <ele>221</ele>
        <time>2018-04-20T11:52:46Z</time>
      </trkpt>
      <trkpt lat="49.81404" lon="6.33089">
        <ele>221</ele>
        <time>2018-04-20T11:52:56Z</time>
      </trkpt>
      <trkpt lat="49.81406" lon="6.33092">
        <ele>222</ele>
        <time>2018-04-20T11:53:07Z</time>
      </trkpt>
      <trkpt lat="49.81413" lon="6.33097">
        <ele>223</ele>
        <time>2018-04-20T11:53:17Z</time>
      </trkpt>
      <trkpt lat="49.8142" lon="6.33102">
        <ele>224</ele>
        <time>2018-04-20T11:53:27Z</time>
      </trkpt>
      <trkpt lat="49.81426" lon="6.3311">
        <ele>224</ele>
        <time>2018-04-20T11:53:38Z</time>
      </trkpt>
      <trkpt lat="49.8143" lon="6.33117">
        <ele>225</ele>
        <time>2018-04-20T11:53:48Z</time>
      </trkpt>
      <trkpt lat="49.81437" lon="6.33123">
        <ele>225</ele>
        <time>2018-04-20T11:53:59Z</time>
      </trkpt>
      <trkpt lat="49.81447" lon="6.33125">
        <ele>226</ele>
        <time>2018-04-20T11:54:10Z</time>
      </trkpt>
      <trkpt lat="49.81449" lon="6.33129">
        <ele>226</ele>
        <time>2018-04-20T11:54:20Z</time>
      </trkpt>
      <trkpt lat="49.81449" lon="6.33128">
        <ele>227</ele>
        <time>2018-04-20T11:54:31Z</time>
      </trkpt>
      <trkpt lat="49.81451" lon="6.33131">
        <ele>227</ele>
        <time>2018-04-20T11:54:41Z</time>
      </trkpt>
      <trkpt lat="49.81453" lon="6.33146">
        <ele>229</ele>
        <time>2018-04-20T11:54:52Z</time>
      </trkpt>
      <trkpt lat="49.81453" lon="6.33157">
        <ele>229</ele>
        <time>2018-04-20T11:55:03Z</time>
      </trkpt>
      <trkpt lat="49.81451" lon="6.33164">
        <ele>229</ele>
        <time>2018-04-20T11:55:14Z</time>
      </trkpt>
      <trkpt lat="49.81452" lon="6.33169">
        <ele>229</ele>
        <time>2018-04-20T11:55:24Z</time>
      </trkpt>
      <trkpt lat="49.81453" lon="6.33166">
        <ele>228</ele>
        <time>2018-04-20T11:55:34Z</time>
      </trkpt>
      <trkpt lat="49.81454" lon="6.33171">
        <ele>229</ele>
        <time>2018-04-20T11:55:44Z</time>
      </trkpt>
      <trkpt lat="49.81456" lon="6.33175">
        <ele>228</ele>
        <time>2018-04-20T11:55:54Z</time>
      </trkpt>
      <trkpt lat="49.81459" lon="6.33171">
        <ele>229</ele>
        <time>2018-04-20T11:56:05Z</time>
      </trkpt>
      <trkpt lat="49.81461" lon="6.33176">
        <ele>229</ele>
        <time>2018-04-20T11:56:16Z</time>
      </trkpt>
      <trkpt lat="49.81462" lon="6.33176">
        <ele>229</ele>
        <time>2018-04-20T11:56:26Z</time>
      </trkpt>
      <trkpt lat="49.81459" lon="6.33179">
        <ele>229</ele>
        <time>2018-04-20T11:56:37Z</time>
      </trkpt>
      <trkpt lat="49.81464" lon="6.33174">
        <ele>229</ele>
        <time>2018-04-20T11:56:47Z</time>
      </trkpt>
      <trkpt lat="49.81468" lon="6.33165">
        <ele>228</ele>
        <time>2018-04-20T11:57:07Z</time>
      </trkpt>
      <trkpt lat="49.81472" lon="6.33171">
        <ele>228</ele>
        <time>2018-04-20T11:57:18Z</time>
      </trkpt>
      <trkpt lat="49.81473" lon="6.33177">
        <ele>229</ele>
        <time>2018-04-20T11:57:29Z</time>
      </trkpt>
      <trkpt lat="49.81469" lon="6.33192">
        <ele>228</ele>
        <time>2018-04-20T11:57:39Z</time>
      </trkpt>
      <trkpt lat="49.81454" lon="6.33204">
        <ele>227</ele>
        <time>2018-04-20T11:57:49Z</time>
      </trkpt>
      <trkpt lat="49.81479" lon="6.33175">
        <ele>228</ele>
        <time>2018-04-20T11:58:29Z</time>
      </trkpt>
      <trkpt lat="49.8146" lon="6.33175">
        <ele>228</ele>
        <time>2018-04-20T11:58:40Z</time>
      </trkpt>
      <trkpt lat="49.81463" lon="6.33176">
        <ele>228</ele>
        <time>2018-04-20T11:58:50Z</time>
      </trkpt>
      <trkpt lat="49.81454" lon="6.33177">
        <ele>228</ele>
        <time>2018-04-20T11:59:01Z</time>
      </trkpt>
      <trkpt lat="49.81443" lon="6.33177">
        <ele>228</ele>
        <time>2018-04-20T11:59:12Z</time>
      </trkpt>
      <trkpt lat="49.81459" lon="6.33173">
        <ele>228</ele>
        <time>2018-04-20T11:59:22Z</time>
      </trkpt>
      <trkpt lat="49.81463" lon="6.33169">
        <ele>227</ele>
        <time>2018-04-20T11:59:33Z</time>
      </trkpt>
      <trkpt lat="49.8146" lon="6.33174">
        <ele>229</ele>
        <time>2018-04-20T11:59:45Z</time>
      </trkpt>
      <trkpt lat="49.81461" lon="6.33177">
        <ele>228</ele>
        <time>2018-04-20T11:59:55Z</time>
      </trkpt>
      <trkpt lat="49.8146" lon="6.33169">
        <ele>228</ele>
        <time>2018-04-20T12:00:05Z</time>
      </trkpt>
      <trkpt lat="49.81459" lon="6.33171">
        <ele>228</ele>
        <time>2018-04-20T12:00:16Z</time>
      </trkpt>
      <trkpt lat="49.8146" lon="6.3317">
        <ele>228</ele>
        <time>2018-04-20T12:00:27Z</time>
      </trkpt>
      <trkpt lat="49.81465" lon="6.33172">
        <ele>228</ele>
        <time>2018-04-20T12:00:39Z</time>
      </trkpt>
      <trkpt lat="49.81467" lon="6.3317">
        <ele>229</ele>
        <time>2018-04-20T12:00:50Z</time>
      </trkpt>
      <trkpt lat="49.81469" lon="6.33169">
        <ele>229</ele>
        <time>2018-04-20T12:01:00Z</time>
      </trkpt>
      <trkpt lat="49.81459" lon="6.33172">
        <ele>230</ele>
        <time>2018-04-20T12:01:11Z</time>
      </trkpt>
      <trkpt lat="49.81457" lon="6.33178">
        <ele>229</ele>
        <time>2018-04-20T12:01:21Z</time>
      </trkpt>
      <trkpt lat="49.8145" lon="6.33186">
        <ele>229</ele>
        <time>2018-04-20T12:01:31Z</time>
      </trkpt>
      <trkpt lat="49.81443" lon="6.33199">
        <ele>230</ele>
        <time>2018-04-20T12:01:41Z</time>
      </trkpt>
      <trkpt lat="49.81452" lon="6.33196">
        <ele>230</ele>
        <time>2018-04-20T12:01:52Z</time>
      </trkpt>
      <trkpt lat="49.81461" lon="6.33192">
        <ele>229</ele>
        <time>2018-04-20T12:02:02Z</time>
      </trkpt>
      <trkpt lat="49.81465" lon="6.33196">
        <ele>228</ele>
        <time>2018-04-20T12:02:13Z</time>
      </trkpt>
      <trkpt lat="49.81467" lon="6.33192">
        <ele>229</ele>
        <time>2018-04-20T12:02:24Z</time>
      </trkpt>
      <trkpt lat="49.8147" lon="6.33193">
        <ele>229</ele>
        <time>2018-04-20T12:02:34Z</time>
      </trkpt>
      <trkpt lat="49.81471" lon="6.33194">
        <ele>229</ele>
        <time>2018-04-20T12:02:45Z</time>
      </trkpt>
      <trkpt lat="49.81469" lon="6.33197">
        <ele>228</ele>
        <time>2018-04-20T12:02:55Z</time>
      </trkpt>
      <trkpt lat="49.81469" lon="6.33193">
        <ele>230</ele>
        <time>2018-04-20T12:03:06Z</time>
      </trkpt>
      <trkpt lat="49.81474" lon="6.33194">
        <ele>230</ele>
        <time>2018-04-20T12:03:16Z</time>
      </trkpt>
      <trkpt lat="49.81484" lon="6.33191">
        <ele>230</ele>
        <time>2018-04-20T12:03:27Z</time>
      </trkpt>
      <trkpt lat="49.81489" lon="6.33191">
        <ele>231</ele>
        <time>2018-04-20T12:03:37Z</time>
      </trkpt>
      <trkpt lat="49.81494" lon="6.33201">
        <ele>232</ele>
        <time>2018-04-20T12:03:47Z</time>
      </trkpt>
      <trkpt lat="49.81497" lon="6.33205">
        <ele>232</ele>
        <time>2018-04-20T12:03:58Z</time>
      </trkpt>
      <trkpt lat="49.81498" lon="6.33214">
        <ele>232</ele>
        <time>2018-04-20T12:04:09Z</time>
      </trkpt>
      <trkpt lat="49.81498" lon="6.33221">
        <ele>233</ele>
        <time>2018-04-20T12:04:19Z</time>
      </trkpt>
      <trkpt lat="49.81505" lon="6.33227">
        <ele>234</ele>
        <time>2018-04-20T12:04:29Z</time>
      </trkpt>
      <trkpt lat="49.81514" lon="6.33235">
        <ele>234</ele>
        <time>2018-04-20T12:04:40Z</time>
      </trkpt>
      <trkpt lat="49.81519" lon="6.33241">
        <ele>235</ele>
        <time>2018-04-20T12:04:51Z</time>
      </trkpt>
      <trkpt lat="49.81522" lon="6.33239">
        <ele>235</ele>
        <time>2018-04-20T12:05:01Z</time>
      </trkpt>
      <trkpt lat="49.81527" lon="6.33245">
        <ele>235</ele>
        <time>2018-04-20T12:05:11Z</time>
      </trkpt>
      <trkpt lat="49.8153" lon="6.3325">
        <ele>234</ele>
        <time>2018-04-20T12:05:21Z</time>
      </trkpt>
      <trkpt lat="49.8153" lon="6.33254">
        <ele>234</ele>
        <time>2018-04-20T12:05:32Z</time>
      </trkpt>
      <trkpt lat="49.8153" lon="6.33259">
        <ele>234</ele>
        <time>2018-04-20T12:05:43Z</time>
      </trkpt>
      <trkpt lat="49.81535" lon="6.33253">
        <ele>235</ele>
        <time>2018-04-20T12:05:54Z</time>
      </trkpt>
      <trkpt lat="49.8154" lon="6.33245">
        <ele>234</ele>
        <time>2018-04-20T12:06:04Z</time>
      </trkpt>
      <trkpt lat="49.81543" lon="6.33237">
        <ele>234</ele>
        <time>2018-04-20T12:06:15Z</time>
      </trkpt>
      <trkpt lat="49.81547" lon="6.33231">
        <ele>233</ele>
        <time>2018-04-20T12:06:26Z</time>
      </trkpt>
      <trkpt lat="49.81551" lon="6.3323">
        <ele>232</ele>
        <time>2018-04-20T12:06:36Z</time>
      </trkpt>
      <trkpt lat="49.81558" lon="6.33232">
        <ele>231</ele>
        <time>2018-04-20T12:06:47Z</time>
      </trkpt>
      <trkpt lat="49.81564" lon="6.33235">
        <ele>231</ele>
        <time>2018-04-20T12:06:57Z</time>
      </trkpt>
      <trkpt lat="49.81572" lon="6.33234">
        <ele>231</ele>
        <time>2018-04-20T12:07:08Z</time>
      </trkpt>
      <trkpt lat="49.81575" lon="6.33238">
        <ele>230</ele>
        <time>2018-04-20T12:07:18Z</time>
      </trkpt>
      <trkpt lat="49.81577" lon="6.33244">
        <ele>230</ele>
        <time>2018-04-20T12:07:28Z</time>
      </trkpt>
      <trkpt lat="49.81579" lon="6.33243">
        <ele>230</ele>
        <time>2018-04-20T12:07:39Z</time>
      </trkpt>
      <trkpt lat="49.81582" lon="6.33241">
        <ele>228</ele>
        <time>2018-04-20T12:07:49Z</time>
      </trkpt>
      <trkpt lat="49.81588" lon="6.3324">
        <ele>227</ele>
        <time>2018-04-20T12:07:59Z</time>
      </trkpt>
      <trkpt lat="49.81595" lon="6.33238">
        <ele>227</ele>
        <time>2018-04-20T12:08:10Z</time>
      </trkpt>
      <trkpt lat="49.81601" lon="6.33237">
        <ele>227</ele>
        <time>2018-04-20T12:08:20Z</time>
      </trkpt>
      <trkpt lat="49.81604" lon="6.33245">
        <ele>226</ele>
        <time>2018-04-20T12:08:30Z</time>
      </trkpt>
      <trkpt lat="49.8161" lon="6.33252">
        <ele>225</ele>
        <time>2018-04-20T12:08:40Z</time>
      </trkpt>
      <trkpt lat="49.81618" lon="6.33255">
        <ele>225</ele>
        <time>2018-04-20T12:08:51Z</time>
      </trkpt>
      <trkpt lat="49.81624" lon="6.3326">
        <ele>225</ele>
        <time>2018-04-20T12:09:02Z</time>
      </trkpt>
      <trkpt lat="49.81625" lon="6.33267">
        <ele>227</ele>
        <time>2018-04-20T12:09:12Z</time>
      </trkpt>
      <trkpt lat="49.81626" lon="6.33276">
        <ele>228</ele>
        <time>2018-04-20T12:09:23Z</time>
      </trkpt>
      <trkpt lat="49.81627" lon="6.33284">
        <ele>230</ele>
        <time>2018-04-20T12:09:33Z</time>
      </trkpt>
      <trkpt lat="49.8163" lon="6.3329">
        <ele>231</ele>
        <time>2018-04-20T12:09:44Z</time>
      </trkpt>
      <trkpt lat="49.81636" lon="6.33295">
        <ele>232</ele>
        <time>2018-04-20T12:09:55Z</time>
      </trkpt>
      <trkpt lat="49.81641" lon="6.333">
        <ele>233</ele>
        <time>2018-04-20T12:10:06Z</time>
      </trkpt>
      <trkpt lat="49.81646" lon="6.33304">
        <ele>234</ele>
        <time>2018-04-20T12:10:16Z</time>
      </trkpt>
      <trkpt lat="49.81647" lon="6.33305">
        <ele>234</ele>
        <time>2018-04-20T12:10:26Z</time>
      </trkpt>
      <trkpt lat="49.81653" lon="6.33309">
        <ele>235</ele>
        <time>2018-04-20T12:10:37Z</time>
      </trkpt>
      <trkpt lat="49.81658" lon="6.33314">
        <ele>236</ele>
        <time>2018-04-20T12:10:47Z</time>
      </trkpt>
      <trkpt lat="49.81665" lon="6.33315">
        <ele>236</ele>
        <time>2018-04-20T12:10:57Z</time>
      </trkpt>
      <trkpt lat="49.81673" lon="6.33315">
        <ele>236</ele>
        <time>2018-04-20T12:11:08Z</time>
      </trkpt>
      <trkpt lat="49.81677" lon="6.33313">
        <ele>235</ele>
        <time>2018-04-20T12:11:18Z</time>
      </trkpt>
      <trkpt lat="49.81675" lon="6.33311">
        <ele>235</ele>
        <time>2018-04-20T12:11:28Z</time>
      </trkpt>
      <trkpt lat="49.81674" lon="6.33305">
        <ele>235</ele>
        <time>2018-04-20T12:11:39Z</time>
      </trkpt>
      <trkpt lat="49.8168" lon="6.333">
        <ele>235</ele>
        <time>2018-04-20T12:11:50Z</time>
      </trkpt>
      <trkpt lat="49.81678" lon="6.33295">
        <ele>235</ele>
        <time>2018-04-20T12:12:00Z</time>
      </trkpt>
      <trkpt lat="49.81675" lon="6.33293">
        <ele>235</ele>
        <time>2018-04-20T12:12:10Z</time>
      </trkpt>
      <trkpt lat="49.8167" lon="6.33283">
        <ele>235</ele>
        <time>2018-04-20T12:12:21Z</time>
      </trkpt>
      <trkpt lat="49.81672" lon="6.33285">
        <ele>234</ele>
        <time>2018-04-20T12:12:31Z</time>
      </trkpt>
      <trkpt lat="49.81675" lon="6.33289">
        <ele>234</ele>
        <time>2018-04-20T12:12:41Z</time>
      </trkpt>
      <trkpt lat="49.8168" lon="6.33295">
        <ele>233</ele>
        <time>2018-04-20T12:12:52Z</time>
      </trkpt>
      <trkpt lat="49.81684" lon="6.33294">
        <ele>234</ele>
        <time>2018-04-20T12:13:03Z</time>
      </trkpt>
      <trkpt lat="49.81686" lon="6.33291">
        <ele>232</ele>
        <time>2018-04-20T12:13:14Z</time>
      </trkpt>
      <trkpt lat="49.81688" lon="6.33289">
        <ele>231</ele>
        <time>2018-04-20T12:13:24Z</time>
      </trkpt>
      <trkpt lat="49.81693" lon="6.3329">
        <ele>230</ele>
        <time>2018-04-20T12:13:34Z</time>
      </trkpt>
      <trkpt lat="49.81699" lon="6.33289">
        <ele>230</ele>
        <time>2018-04-20T12:13:45Z</time>
      </trkpt>
      <trkpt lat="49.81701" lon="6.33287">
        <ele>229</ele>
        <time>2018-04-20T12:13:56Z</time>
      </trkpt>
      <trkpt lat="49.81702" lon="6.33289">
        <ele>230</ele>
        <time>2018-04-20T12:14:06Z</time>
      </trkpt>
      <trkpt lat="49.81704" lon="6.33281">
        <ele>229</ele>
        <time>2018-04-20T12:14:16Z</time>
      </trkpt>
      <trkpt lat="49.817" lon="6.33274">
        <ele>228</ele>
        <time>2018-04-20T12:14:26Z</time>
      </trkpt>
      <trkpt lat="49.81699" lon="6.33274">
        <ele>226</ele>
        <time>2018-04-20T12:14:37Z</time>
      </trkpt>
      <trkpt lat="49.81702" lon="6.33261">
        <ele>225</ele>
        <time>2018-04-20T12:14:49Z</time>
      </trkpt>
      <trkpt lat="49.8171" lon="6.33263">
        <ele>225</ele>
        <time>2018-04-20T12:15:00Z</time>
      </trkpt>
      <trkpt lat="49.81706" lon="6.33245">
        <ele>223</ele>
        <time>2018-04-20T12:15:10Z</time>
      </trkpt>
      <trkpt lat="49.81724" lon="6.33178">
        <ele>221</ele>
        <time>2018-04-20T12:16:14Z</time>
      </trkpt>
      <trkpt lat="49.81737" lon="6.33209">
        <ele>220</ele>
        <time>2018-04-20T12:16:25Z</time>
      </trkpt>
      <trkpt lat="49.8169" lon="6.33214">
        <ele>221</ele>
        <time>2018-04-20T12:16:43Z</time>
      </trkpt>
      <trkpt lat="49.81742" lon="6.33237">
        <ele>220</ele>
        <time>2018-04-20T12:16:53Z</time>
      </trkpt>
      <trkpt lat="49.81752" lon="6.33237">
        <ele>219</ele>
        <time>2018-04-20T12:17:04Z</time>
      </trkpt>
      <trkpt lat="49.81758" lon="6.33235">
        <ele>218</ele>
        <time>2018-04-20T12:17:14Z</time>
      </trkpt>
      <trkpt lat="49.81763" lon="6.33248">
        <ele>219</ele>
        <time>2018-04-20T12:17:25Z</time>
      </trkpt>
      <trkpt lat="49.81749" lon="6.33247">
        <ele>219</ele>
        <time>2018-04-20T12:17:45Z</time>
      </trkpt>
      <trkpt lat="49.81742" lon="6.33233">
        <ele>218</ele>
        <time>2018-04-20T12:17:55Z</time>
      </trkpt>
      <trkpt lat="49.8174" lon="6.33218">
        <ele>216</ele>
        <time>2018-04-20T12:18:05Z</time>
      </trkpt>
      <trkpt lat="49.81744" lon="6.33211">
        <ele>215</ele>
        <time>2018-04-20T12:18:16Z</time>
      </trkpt>
      <trkpt lat="49.81745" lon="6.33213">
        <ele>214</ele>
        <time>2018-04-20T12:18:26Z</time>
      </trkpt>
      <trkpt lat="49.81743" lon="6.33223">
        <ele>214</ele>
        <time>2018-04-20T12:18:37Z</time>
      </trkpt>
      <trkpt lat="49.81742" lon="6.3323">
        <ele>214</ele>
        <time>2018-04-20T12:18:48Z</time>
      </trkpt>
      <trkpt lat="49.81743" lon="6.3324">
        <ele>215</ele>
        <time>2018-04-20T12:18:59Z</time>
      </trkpt>
      <trkpt lat="49.81743" lon="6.3325">
        <ele>215</ele>
        <time>2018-04-20T12:19:10Z</time>
      </trkpt>
      <trkpt lat="49.81747" lon="6.33258">
        <ele>216</ele>
        <time>2018-04-20T12:19:21Z</time>
      </trkpt>
      <trkpt lat="49.81746" lon="6.33263">
        <ele>216</ele>
        <time>2018-04-20T12:19:31Z</time>
      </trkpt>
      <trkpt lat="49.81749" lon="6.33266">
        <ele>217</ele>
        <time>2018-04-20T12:19:42Z</time>
      </trkpt>
      <trkpt lat="49.81751" lon="6.3327">
        <ele>217</ele>
        <time>2018-04-20T12:19:52Z</time>
      </trkpt>
      <trkpt lat="49.8175" lon="6.33265">
        <ele>218</ele>
        <time>2018-04-20T12:20:03Z</time>
      </trkpt>
      <trkpt lat="49.81749" lon="6.33262">
        <ele>217</ele>
        <time>2018-04-20T12:20:14Z</time>
      </trkpt>
      <trkpt lat="49.81747" lon="6.33257">
        <ele>217</ele>
        <time>2018-04-20T12:20:24Z</time>
      </trkpt>
      <trkpt lat="49.81745" lon="6.33248">
        <ele>218</ele>
        <time>2018-04-20T12:20:35Z</time>
      </trkpt>
      <trkpt lat="49.81741" lon="6.33242">
        <ele>217</ele>
        <time>2018-04-20T12:20:45Z</time>
      </trkpt>
      <trkpt lat="49.81741" lon="6.33234">
        <ele>217</ele>
        <time>2018-04-20T12:20:56Z</time>
      </trkpt>
      <trkpt lat="49.81745" lon="6.33232">
        <ele>217</ele>
        <time>2018-04-20T12:21:06Z</time>
      </trkpt>
      <trkpt lat="49.8175" lon="6.33242">
        <ele>217</ele>
        <time>2018-04-20T12:21:16Z</time>
      </trkpt>
      <trkpt lat="49.8175" lon="6.33248">
        <ele>218</ele>
        <time>2018-04-20T12:21:26Z</time>
      </trkpt>
      <trkpt lat="49.81748" lon="6.33246">
        <ele>217</ele>
        <time>2018-04-20T12:21:36Z</time>
      </trkpt>
    </trkseg>
  </trk>
</gpx>